TAP088 SBGR-LPPT
Flight info
| Callsign | TAP088 |
|---|---|
| Flight time | N/A |
| Altitude | 35000 |
| Route | NUXEL UZ23 ILPIR UZ72 EDNES UN866 DORMU/N0474F370 UN866 DEKON/N0466F380 UN866 AMDOL/N0458F390 UN866 TENPA N866 GOMER/N0454F400 N866 KONBA UN866 BEXAL DCT LUVUP |
| Aircraft | A339/H-SADE1E2E3GHIJ3J5M1P2RWXY/LB2D1 |
Departure
| Time | 2026-05-03 22:23 |
|---|---|
| Airport | São Paulo/Guarulhos–Governor André Franco Montoro International Airport (SBGR) |
Arrival
| Time | N/A |
|---|---|
| Airport | Lisbon Humberto Delgado Airport (LPPT) |
| Time | Latitude | Longitude | Altitude | Speed | Heading |
|---|---|---|---|---|---|
| 2026-05-03 21:33 | -23.42689 | -46.47447 | 2454 ft | 0 kts | 73° |
| 2026-05-03 22:10 | -23.42690 | -46.47448 | 2453 ft | 1 kts | 73° |
| 2026-05-03 22:11 | -23.42694 | -46.47463 | 2454 ft | 2 kts | 73° |
| 2026-05-03 22:11 | -23.42698 | -46.47479 | 2454 ft | 2 kts | 73° |
| 2026-05-03 22:11 | -23.42703 | -46.47494 | 2454 ft | 2 kts | 81° |
| 2026-05-03 22:11 | -23.42703 | -46.47510 | 2454 ft | 2 kts | 98° |
| 2026-05-03 22:12 | -23.42699 | -46.47526 | 2454 ft | 2 kts | 112° |
| 2026-05-03 22:12 | -23.42693 | -46.47540 | 2454 ft | 2 kts | 126° |
| 2026-05-03 22:12 | -23.42683 | -46.47552 | 2453 ft | 2 kts | 141° |
| 2026-05-03 22:12 | -23.42670 | -46.47561 | 2453 ft | 2 kts | 155° |
| 2026-05-03 22:13 | -23.42662 | -46.47565 | 2453 ft | 1 kts | 163° |
| 2026-05-03 22:13 | -23.42659 | -46.47566 | 2453 ft | 0 kts | 163° |
| 2026-05-03 22:16 | -23.42663 | -46.47565 | 2453 ft | 1 kts | 163° |
| 2026-05-03 22:17 | -23.42682 | -46.47559 | 2453 ft | 4 kts | 163° |
| 2026-05-03 22:17 | -23.42717 | -46.47548 | 2454 ft | 6 kts | 164° |
| 2026-05-03 22:17 | -23.42764 | -46.47533 | 2455 ft | 7 kts | 163° |
| 2026-05-03 22:17 | -23.42824 | -46.47513 | 2455 ft | 10 kts | 161° |
| 2026-05-03 22:18 | -23.42897 | -46.47484 | 2457 ft | 11 kts | 160° |
| 2026-05-03 22:18 | -23.42938 | -46.47496 | 2457 ft | 7 kts | 239° |
| 2026-05-03 22:18 | -23.42957 | -46.47557 | 2458 ft | 9 kts | 253° |
| 2026-05-03 22:18 | -23.42979 | -46.47638 | 2459 ft | 12 kts | 253° |
| 2026-05-03 22:19 | -23.43007 | -46.47739 | 2459 ft | 15 kts | 253° |
| 2026-05-03 22:19 | -23.43041 | -46.47860 | 2459 ft | 17 kts | 252° |
| 2026-05-03 22:19 | -23.43075 | -46.47993 | 2460 ft | 19 kts | 254° |
| 2026-05-03 22:19 | -23.43115 | -46.48140 | 2459 ft | 20 kts | 253° |
| 2026-05-03 22:20 | -23.43155 | -46.48283 | 2459 ft | 19 kts | 253° |
| 2026-05-03 22:20 | -23.43225 | -46.48389 | 2458 ft | 16 kts | 178° |
| 2026-05-03 22:20 | -23.43287 | -46.48371 | 2460 ft | 0 kts | 164° |
| 2026-05-03 22:20 | -23.43289 | -46.48371 | 2460 ft | 0 kts | 164° |
| 2026-05-03 22:21 | -23.43298 | -46.48368 | 2460 ft | 2 kts | 164° |
| 2026-05-03 22:21 | -23.43335 | -46.48357 | 2461 ft | 10 kts | 164° |
| 2026-05-03 22:21 | -23.43408 | -46.48317 | 2463 ft | 11 kts | 109° |
| 2026-05-03 22:21 | -23.43396 | -46.48219 | 2464 ft | 24 kts | 72° |
| 2026-05-03 22:22 | -23.43293 | -46.47833 | 2466 ft | 79 kts | 74° |
| 2026-05-03 22:22 | -23.43092 | -46.47085 | 2462 ft | 127 kts | 73° |
| 2026-05-03 22:22 | -23.42796 | -46.45994 | 2459 ft | 169 kts | 73° |
| 2026-05-03 22:22 | -23.42435 | -46.44680 | 2645 ft | 187 kts | 75° |
| 2026-05-03 22:23 | -23.42055 | -46.43335 | 3095 ft | 188 kts | 74° |
| 2026-05-03 22:23 | -23.41647 | -46.41969 | 3571 ft | 190 kts | 74° |
| 2026-05-03 22:23 | -23.41259 | -46.40653 | 4221 ft | 182 kts | 74° |
| 2026-05-03 22:23 | -23.40886 | -46.39318 | 4458 ft | 190 kts | 75° |
| 2026-05-03 22:24 | -23.40495 | -46.37883 | 4597 ft | 204 kts | 74° |
| 2026-05-03 22:24 | -23.40045 | -46.36363 | 4804 ft | 216 kts | 67° |
| 2026-05-03 22:24 | -23.39375 | -46.34849 | 4989 ft | 230 kts | 60° |
| 2026-05-03 22:24 | -23.38485 | -46.33328 | 5226 ft | 243 kts | 56° |
| 2026-05-03 22:25 | -23.37472 | -46.31786 | 5437 ft | 258 kts | 54° |
| 2026-05-03 22:25 | -23.36434 | -46.30133 | 5717 ft | 271 kts | 58° |
| 2026-05-03 22:25 | -23.35408 | -46.28351 | 5900 ft | 287 kts | 57° |
| 2026-05-03 22:25 | -23.35303 | -46.28175 | 5933 ft | 288 kts | 57° |
| 2026-05-03 22:26 | -23.35109 | -46.27845 | 6019 ft | 289 kts | 57° |
| 2026-05-03 22:26 | -23.34044 | -46.26020 | 6854 ft | 280 kts | 57° |
| 2026-05-03 22:26 | -23.33035 | -46.24281 | 7601 ft | 274 kts | 57° |
| 2026-05-03 22:27 | -23.32014 | -46.22519 | 8054 ft | 278 kts | 57° |
| 2026-05-03 22:27 | -23.30969 | -46.20719 | 8489 ft | 283 kts | 57° |
| 2026-05-03 22:27 | -23.30310 | -46.19585 | 8758 ft | 286 kts | 57° |
| 2026-05-03 22:27 | -23.29847 | -46.18787 | 8952 ft | 288 kts | 57° |
| 2026-05-03 22:28 | -23.29685 | -46.18508 | 9019 ft | 288 kts | 57° |
| 2026-05-03 22:28 | -23.28619 | -46.16672 | 9471 ft | 293 kts | 57° |
| 2026-05-03 22:29 | -23.27523 | -46.14784 | 9917 ft | 296 kts | 57° |
| 2026-05-03 22:29 | -23.27292 | -46.14386 | 10011 ft | 297 kts | 56° |
| 2026-05-03 22:29 | -23.27057 | -46.13983 | 10106 ft | 298 kts | 56° |
| 2026-05-03 22:29 | -23.25948 | -46.12076 | 10508 ft | 303 kts | 56° |
| 2026-05-03 22:30 | -23.24797 | -46.10096 | 10721 ft | 316 kts | 56° |
| 2026-05-03 22:30 | -23.23594 | -46.08033 | 10939 ft | 328 kts | 57° |
| 2026-05-03 22:30 | -23.22734 | -46.06556 | 11093 ft | 336 kts | 56° |
| 2026-05-03 22:30 | -23.22416 | -46.06033 | 11141 ft | 339 kts | 53° |
| 2026-05-03 22:31 | -23.21802 | -46.05179 | 11222 ft | 344 kts | 47° |
| 2026-05-03 22:31 | -23.21178 | -46.04476 | 11299 ft | 347 kts | 40° |
| 2026-05-03 22:31 | -23.20555 | -46.03928 | 11360 ft | 350 kts | 32° |
| 2026-05-03 22:31 | -23.18375 | -46.02734 | 11605 ft | 357 kts | 19° |
| 2026-05-03 22:32 | -23.17592 | -46.02421 | 11723 ft | 359 kts | 18° |
| 2026-05-03 22:32 | -23.15844 | -46.01784 | 12036 ft | 362 kts | 16° |
| 2026-05-03 22:32 | -23.13423 | -46.01006 | 12490 ft | 365 kts | 12° |
| 2026-05-03 22:32 | -23.12086 | -46.00671 | 12740 ft | 366 kts | 9° |
| 2026-05-03 22:33 | -23.10691 | -46.00398 | 12986 ft | 366 kts | 6° |
| 2026-05-03 22:33 | -23.09282 | -46.00196 | 13218 ft | 368 kts | 4° |
| 2026-05-03 22:33 | -23.06700 | -45.99887 | 13629 ft | 372 kts | 4° |
| 2026-05-03 22:34 | -23.04126 | -45.99593 | 14070 ft | 375 kts | 3° |
| 2026-05-03 22:34 | -23.02914 | -45.99453 | 14275 ft | 376 kts | 4° |
| 2026-05-03 22:34 | -23.00315 | -45.99149 | 14688 ft | 379 kts | 4° |
| 2026-05-03 22:34 | -22.97665 | -45.98833 | 15113 ft | 382 kts | 4° |
| 2026-05-03 22:35 | -22.96865 | -45.98736 | 15246 ft | 383 kts | 4° |
| 2026-05-03 22:35 | -22.94205 | -45.98413 | 15656 ft | 386 kts | 4° |
| 2026-05-03 22:35 | -22.93233 | -45.98295 | 15812 ft | 387 kts | 4° |
| 2026-05-03 22:35 | -22.90572 | -45.97967 | 16220 ft | 389 kts | 4° |
| 2026-05-03 22:36 | -22.87849 | -45.97496 | 16570 ft | 395 kts | 8° |
| 2026-05-03 22:36 | -22.85125 | -45.96855 | 16952 ft | 398 kts | 10° |
| 2026-05-03 22:36 | -22.82387 | -45.96151 | 17325 ft | 401 kts | 11° |
| 2026-05-03 22:36 | -22.79631 | -45.95427 | 17664 ft | 404 kts | 11° |
| 2026-05-03 22:37 | -22.76902 | -45.94710 | 18013 ft | 406 kts | 10° |
| 2026-05-03 22:37 | -22.74159 | -45.93996 | 18381 ft | 409 kts | 10° |
| 2026-05-03 22:37 | -22.71369 | -45.93272 | 18781 ft | 412 kts | 10° |
| 2026-05-03 22:37 | -22.68556 | -45.92544 | 19168 ft | 413 kts | 9° |
| 2026-05-03 22:38 | -22.65762 | -45.91825 | 19527 ft | 416 kts | 9° |
| 2026-05-03 22:38 | -22.62944 | -45.91100 | 19888 ft | 418 kts | 9° |
| 2026-05-03 22:38 | -22.60086 | -45.90362 | 20242 ft | 421 kts | 9° |
| 2026-05-03 22:38 | -22.57237 | -45.89626 | 20607 ft | 423 kts | 9° |
| 2026-05-03 22:39 | -22.54361 | -45.88884 | 20987 ft | 424 kts | 9° |
| 2026-05-03 22:39 | -22.51491 | -45.88146 | 21332 ft | 426 kts | 9° |
| 2026-05-03 22:39 | -22.48569 | -45.87396 | 21686 ft | 429 kts | 8° |
| 2026-05-03 22:39 | -22.45670 | -45.86655 | 22028 ft | 432 kts | 8° |
| 2026-05-03 22:40 | -22.42752 | -45.85908 | 22404 ft | 433 kts | 8° |
| 2026-05-03 22:40 | -22.39794 | -45.85149 | 22768 ft | 435 kts | 8° |
| 2026-05-03 22:40 | -22.36849 | -45.84393 | 23112 ft | 437 kts | 8° |
| 2026-05-03 22:40 | -22.33878 | -45.83631 | 23476 ft | 438 kts | 8° |
| 2026-05-03 22:41 | -22.30922 | -45.82811 | 23818 ft | 442 kts | 13° |
| 2026-05-03 22:41 | -22.28040 | -45.81528 | 24144 ft | 450 kts | 22° |
| 2026-05-03 22:41 | -22.25355 | -45.79747 | 24468 ft | 458 kts | 32° |
| 2026-05-03 22:41 | -22.22828 | -45.77618 | 24786 ft | 462 kts | 34° |
| 2026-05-03 22:42 | -22.20337 | -45.75435 | 25073 ft | 464 kts | 34° |
| 2026-05-03 22:42 | -22.17833 | -45.73230 | 25402 ft | 466 kts | 34° |
| 2026-05-03 22:42 | -22.15316 | -45.71026 | 25695 ft | 467 kts | 34° |
| 2026-05-03 22:42 | -22.12775 | -45.68813 | 25986 ft | 469 kts | 34° |
| 2026-05-03 22:43 | -22.10242 | -45.66610 | 26287 ft | 470 kts | 33° |
| 2026-05-03 22:43 | -22.07686 | -45.64407 | 26560 ft | 472 kts | 33° |
| 2026-05-03 22:43 | -22.05104 | -45.62185 | 26824 ft | 474 kts | 33° |
| 2026-05-03 22:43 | -22.02527 | -45.59954 | 27104 ft | 476 kts | 33° |
| 2026-05-03 22:44 | -21.99930 | -45.57714 | 27387 ft | 477 kts | 33° |
| 2026-05-03 22:44 | -21.97358 | -45.55497 | 27648 ft | 478 kts | 33° |
| 2026-05-03 22:44 | -21.94726 | -45.53256 | 27887 ft | 481 kts | 33° |
| 2026-05-03 22:44 | -21.92117 | -45.51003 | 28138 ft | 483 kts | 33° |
| 2026-05-03 22:45 | -21.89443 | -45.48692 | 28405 ft | 484 kts | 33° |
| 2026-05-03 22:45 | -21.86763 | -45.46385 | 28664 ft | 486 kts | 32° |
| 2026-05-03 22:45 | -21.84104 | -45.44107 | 28901 ft | 487 kts | 33° |
| 2026-05-03 22:45 | -21.81413 | -45.41802 | 29160 ft | 489 kts | 32° |
| 2026-05-03 22:46 | -21.78766 | -45.39535 | 29377 ft | 491 kts | 32° |
| 2026-05-03 22:46 | -21.76058 | -45.37235 | 29629 ft | 493 kts | 33° |
| 2026-05-03 22:46 | -21.73372 | -45.34924 | 29841 ft | 495 kts | 32° |
| 2026-05-03 22:46 | -21.70635 | -45.32563 | 30051 ft | 496 kts | 32° |
| 2026-05-03 22:47 | -21.67881 | -45.30218 | 30250 ft | 499 kts | 33° |
| 2026-05-03 22:47 | -21.65179 | -45.27873 | 30490 ft | 498 kts | 32° |
| 2026-05-03 22:47 | -21.62468 | -45.25575 | 30678 ft | 500 kts | 32° |
| 2026-05-03 22:47 | -21.59747 | -45.23259 | 30889 ft | 501 kts | 32° |
| 2026-05-03 22:48 | -21.56972 | -45.20899 | 31085 ft | 503 kts | 32° |
| 2026-05-03 22:48 | -21.54248 | -45.18569 | 31275 ft | 504 kts | 33° |
| 2026-05-03 22:48 | -21.51493 | -45.16222 | 31527 ft | 504 kts | 33° |
| 2026-05-03 22:48 | -21.48786 | -45.13872 | 31844 ft | 501 kts | 32° |
| 2026-05-03 22:49 | -21.46050 | -45.11538 | 32141 ft | 499 kts | 32° |
| 2026-05-03 22:49 | -21.43346 | -45.09240 | 32423 ft | 498 kts | 32° |
| 2026-05-03 22:49 | -21.40600 | -45.06926 | 32661 ft | 498 kts | 33° |
| 2026-05-03 22:49 | -21.37882 | -45.04623 | 32892 ft | 498 kts | 33° |
| 2026-05-03 22:50 | -21.35196 | -45.02326 | 33148 ft | 497 kts | 33° |
| 2026-05-03 22:50 | -21.32498 | -45.00023 | 33399 ft | 496 kts | 33° |
| 2026-05-03 22:50 | -21.29781 | -44.97708 | 33664 ft | 495 kts | 33° |
| 2026-05-03 22:50 | -21.27114 | -44.95438 | 33928 ft | 494 kts | 33° |
| 2026-05-03 22:51 | -21.24424 | -44.93154 | 34186 ft | 493 kts | 33° |
| 2026-05-03 22:51 | -21.21723 | -44.90861 | 34425 ft | 493 kts | 33° |
| 2026-05-03 22:51 | -21.19046 | -44.88593 | 34619 ft | 493 kts | 33° |
| 2026-05-03 22:51 | -21.16360 | -44.86316 | 34787 ft | 494 kts | 33° |
| 2026-05-03 22:52 | -21.13648 | -44.84016 | 34945 ft | 494 kts | 33° |
| 2026-05-03 22:52 | -21.10973 | -44.81748 | 35079 ft | 496 kts | 33° |
| 2026-05-03 22:52 | -21.08260 | -44.79450 | 35238 ft | 496 kts | 33° |
| 2026-05-03 22:52 | -21.05565 | -44.77178 | 35426 ft | 495 kts | 32° |
| 2026-05-03 22:53 | -21.02784 | -44.74994 | 35604 ft | 494 kts | 30° |
| 2026-05-03 22:53 | -20.99977 | -44.72846 | 35743 ft | 495 kts | 30° |
| 2026-05-03 22:53 | -20.97166 | -44.70704 | 35879 ft | 495 kts | 30° |
| 2026-05-03 22:53 | -20.94359 | -44.68566 | 36023 ft | 496 kts | 30° |
| 2026-05-03 22:54 | -20.91539 | -44.66416 | 36156 ft | 496 kts | 30° |
| 2026-05-03 22:54 | -20.85886 | -44.62104 | 36215 ft | 498 kts | 31° |
| 2026-05-03 22:55 | -20.80238 | -44.57796 | 36225 ft | 498 kts | 30° |
| 2026-05-03 22:55 | -20.74602 | -44.53503 | 36233 ft | 497 kts | 30° |
| 2026-05-03 22:56 | -20.68981 | -44.49224 | 36233 ft | 497 kts | 30° |
| 2026-05-03 22:56 | -20.63354 | -44.44944 | 36228 ft | 497 kts | 31° |
| 2026-05-03 22:57 | -20.57721 | -44.40659 | 36220 ft | 496 kts | 30° |
| 2026-05-03 22:57 | -20.52116 | -44.36406 | 36212 ft | 497 kts | 30° |
| 2026-05-03 22:58 | -20.46470 | -44.32122 | 36204 ft | 496 kts | 30° |
| 2026-05-03 22:58 | -20.40875 | -44.27818 | 36207 ft | 496 kts | 31° |
| 2026-05-03 22:59 | -20.35331 | -44.23401 | 36206 ft | 496 kts | 31° |
| 2026-05-03 22:59 | -20.29822 | -44.19015 | 36206 ft | 496 kts | 31° |
| 2026-05-03 23:00 | -20.24277 | -44.14617 | 36210 ft | 495 kts | 31° |
| 2026-05-03 23:00 | -20.18782 | -44.10267 | 36210 ft | 495 kts | 31° |
| 2026-05-03 23:01 | -20.13244 | -44.05887 | 36213 ft | 495 kts | 31° |
| 2026-05-03 23:01 | -20.07699 | -44.01507 | 36212 ft | 494 kts | 31° |
| 2026-05-03 23:02 | -20.02197 | -43.97176 | 36220 ft | 494 kts | 31° |
| 2026-05-03 23:02 | -19.96654 | -43.92816 | 36227 ft | 494 kts | 31° |
| 2026-05-03 23:03 | -19.91143 | -43.88484 | 36217 ft | 493 kts | 31° |
| 2026-05-03 23:03 | -19.85609 | -43.84149 | 36209 ft | 493 kts | 30° |
| 2026-05-03 23:04 | -19.79969 | -43.80034 | 36205 ft | 492 kts | 29° |
| 2026-05-03 23:04 | -19.74283 | -43.75923 | 36200 ft | 492 kts | 29° |
| 2026-05-03 23:05 | -19.68649 | -43.71849 | 36197 ft | 492 kts | 29° |
| 2026-05-03 23:05 | -19.62961 | -43.67738 | 36193 ft | 493 kts | 29° |
| 2026-05-03 23:06 | -19.57317 | -43.63658 | 36191 ft | 492 kts | 30° |
| 2026-05-03 23:06 | -19.51655 | -43.59567 | 36195 ft | 492 kts | 30° |
| 2026-05-03 23:07 | -19.46003 | -43.55486 | 36195 ft | 492 kts | 30° |
| 2026-05-03 23:07 | -19.40303 | -43.51380 | 36205 ft | 492 kts | 30° |
| 2026-05-03 23:08 | -19.34570 | -43.47425 | 36202 ft | 490 kts | 25° |
| 2026-05-03 23:08 | -19.28579 | -43.44156 | 36194 ft | 485 kts | 19° |
| 2026-05-03 23:09 | -19.22261 | -43.41607 | 36181 ft | 481 kts | 13° |
| 2026-05-03 23:09 | -19.15896 | -43.39393 | 36174 ft | 481 kts | 13° |
| 2026-05-03 23:10 | -19.09534 | -43.37178 | 36168 ft | 481 kts | 13° |
| 2026-05-03 23:10 | -19.03166 | -43.34952 | 36161 ft | 481 kts | 13° |
| 2026-05-03 23:11 | -18.96777 | -43.32717 | 36150 ft | 481 kts | 13° |
| 2026-05-03 23:11 | -18.90450 | -43.30508 | 36156 ft | 481 kts | 13° |
| 2026-05-03 23:12 | -18.84061 | -43.28276 | 36156 ft | 481 kts | 13° |
| 2026-05-03 23:12 | -18.77679 | -43.26051 | 36157 ft | 481 kts | 13° |
| 2026-05-03 23:13 | -18.71321 | -43.23833 | 36156 ft | 481 kts | 13° |
| 2026-05-03 23:13 | -18.64978 | -43.21664 | 36171 ft | 480 kts | 13° |
| 2026-05-03 23:14 | -18.58586 | -43.19572 | 36179 ft | 481 kts | 13° |
| 2026-05-03 23:14 | -18.52167 | -43.17469 | 36187 ft | 480 kts | 13° |
| 2026-05-03 23:15 | -18.45788 | -43.15378 | 36190 ft | 481 kts | 13° |
| 2026-05-03 23:15 | -18.39383 | -43.13265 | 36187 ft | 481 kts | 14° |
| 2026-05-03 23:16 | -18.33070 | -43.10844 | 36190 ft | 483 kts | 16° |
| 2026-05-03 23:16 | -18.26790 | -43.08370 | 36190 ft | 482 kts | 16° |
| 2026-05-03 23:17 | -18.20494 | -43.05891 | 36189 ft | 483 kts | 17° |
| 2026-05-03 23:17 | -18.14191 | -43.03417 | 36188 ft | 482 kts | 16° |
| 2026-05-03 23:18 | -18.07898 | -43.00949 | 36196 ft | 482 kts | 17° |
| 2026-05-03 23:18 | -18.01607 | -42.98483 | 36203 ft | 482 kts | 17° |
| 2026-05-03 23:19 | -17.95315 | -42.96020 | 36214 ft | 482 kts | 17° |
| 2026-05-03 23:19 | -17.89026 | -42.93559 | 36215 ft | 482 kts | 17° |
| 2026-05-03 23:20 | -17.82712 | -42.91089 | 36203 ft | 481 kts | 17° |
| 2026-05-03 23:20 | -17.76427 | -42.88635 | 36197 ft | 480 kts | 17° |
| 2026-05-03 23:21 | -17.70172 | -42.86193 | 36187 ft | 480 kts | 17° |
| 2026-05-03 23:21 | -17.63900 | -42.83747 | 36171 ft | 480 kts | 17° |
| 2026-05-03 23:22 | -17.54496 | -42.80083 | 36153 ft | 479 kts | 17° |
| 2026-05-03 23:22 | -17.48259 | -42.77656 | 36141 ft | 478 kts | 17° |
| 2026-05-03 23:23 | -17.42017 | -42.75227 | 36137 ft | 479 kts | 17° |
| 2026-05-03 23:23 | -17.35776 | -42.72802 | 36132 ft | 478 kts | 17° |
| 2026-05-03 23:24 | -17.29514 | -42.70372 | 36131 ft | 478 kts | 17° |
| 2026-05-03 23:24 | -17.23295 | -42.67960 | 36125 ft | 477 kts | 17° |
| 2026-05-03 23:25 | -17.17043 | -42.65537 | 36125 ft | 477 kts | 17° |
| 2026-05-03 23:25 | -17.10807 | -42.63121 | 36119 ft | 477 kts | 17° |
| 2026-05-03 23:26 | -17.04582 | -42.60712 | 36113 ft | 476 kts | 17° |
| 2026-05-03 23:26 | -16.98368 | -42.58308 | 36105 ft | 476 kts | 17° |
| 2026-05-03 23:27 | -16.92144 | -42.55904 | 36106 ft | 476 kts | 17° |
| 2026-05-03 23:27 | -16.85907 | -42.53495 | 36105 ft | 476 kts | 17° |
| 2026-05-03 23:28 | -16.79713 | -42.51104 | 36110 ft | 476 kts | 17° |
| 2026-05-03 23:28 | -16.73498 | -42.48709 | 36112 ft | 475 kts | 17° |
| 2026-05-03 23:29 | -16.67286 | -42.46315 | 36112 ft | 475 kts | 17° |
| 2026-05-03 23:29 | -16.61064 | -42.43917 | 36105 ft | 475 kts | 17° |
| 2026-05-03 23:30 | -16.54849 | -42.41518 | 36107 ft | 475 kts | 17° |
| 2026-05-03 23:30 | -16.48640 | -42.39129 | 36105 ft | 475 kts | 17° |
| 2026-05-03 23:31 | -16.42448 | -42.36748 | 36111 ft | 475 kts | 17° |
| 2026-05-03 23:31 | -16.36189 | -42.34344 | 36109 ft | 475 kts | 17° |
| 2026-05-03 23:32 | -16.29990 | -42.31963 | 36114 ft | 475 kts | 17° |
| 2026-05-03 23:32 | -16.23769 | -42.29577 | 36113 ft | 475 kts | 17° |
| 2026-05-03 23:33 | -16.17560 | -42.27185 | 36119 ft | 476 kts | 18° |
| 2026-05-03 23:33 | -16.11512 | -42.24368 | 36114 ft | 477 kts | 23° |
| 2026-05-03 23:34 | -16.05522 | -42.21324 | 36119 ft | 478 kts | 23° |
| 2026-05-03 23:34 | -15.99563 | -42.18295 | 36124 ft | 478 kts | 23° |
| 2026-05-03 23:35 | -15.93595 | -42.15266 | 36136 ft | 478 kts | 23° |
| 2026-05-03 23:35 | -15.87587 | -42.12223 | 36147 ft | 478 kts | 23° |
| 2026-05-03 23:36 | -15.81605 | -42.09195 | 36154 ft | 478 kts | 23° |
| 2026-05-03 23:36 | -15.75614 | -42.06164 | 36160 ft | 478 kts | 23° |
| 2026-05-03 23:37 | -15.69643 | -42.03148 | 36159 ft | 478 kts | 23° |
| 2026-05-03 23:37 | -15.63648 | -42.00120 | 36150 ft | 478 kts | 23° |
| 2026-05-03 23:38 | -15.57664 | -41.97098 | 36137 ft | 478 kts | 23° |
| 2026-05-03 23:38 | -15.51661 | -41.94070 | 36127 ft | 478 kts | 24° |
| 2026-05-03 23:39 | -15.45693 | -41.91064 | 36120 ft | 478 kts | 24° |
| 2026-05-03 23:39 | -15.39725 | -41.88055 | 36129 ft | 478 kts | 24° |
| 2026-05-03 23:40 | -15.33739 | -41.85043 | 36138 ft | 478 kts | 24° |
| 2026-05-03 23:40 | -15.27710 | -41.82008 | 36151 ft | 478 kts | 24° |
| 2026-05-03 23:41 | -15.21757 | -41.79015 | 36159 ft | 477 kts | 24° |
| 2026-05-03 23:41 | -15.15775 | -41.76009 | 36153 ft | 477 kts | 24° |
| 2026-05-03 23:42 | -15.09801 | -41.73008 | 36146 ft | 477 kts | 24° |
| 2026-05-03 23:42 | -15.03788 | -41.69990 | 36139 ft | 477 kts | 24° |
| 2026-05-03 23:43 | -14.97838 | -41.67006 | 36130 ft | 477 kts | 24° |
| 2026-05-03 23:43 | -14.91832 | -41.63995 | 36126 ft | 477 kts | 24° |
| 2026-05-03 23:44 | -14.85857 | -41.61002 | 36121 ft | 477 kts | 24° |
| 2026-05-03 23:44 | -14.79868 | -41.58003 | 36123 ft | 477 kts | 24° |
| 2026-05-03 23:45 | -14.73906 | -41.55021 | 36119 ft | 477 kts | 24° |
| 2026-05-03 23:45 | -14.67938 | -41.52037 | 36117 ft | 476 kts | 24° |
| 2026-05-03 23:46 | -14.61962 | -41.49050 | 36121 ft | 477 kts | 24° |
| 2026-05-03 23:46 | -14.55949 | -41.46047 | 36116 ft | 477 kts | 24° |
| 2026-05-03 23:47 | -14.50010 | -41.43083 | 36108 ft | 476 kts | 24° |
| 2026-05-03 23:47 | -14.44017 | -41.40094 | 36093 ft | 476 kts | 24° |
| 2026-05-03 23:48 | -14.38032 | -41.37108 | 36083 ft | 476 kts | 24° |
| 2026-05-03 23:48 | -14.32087 | -41.34145 | 36069 ft | 476 kts | 24° |
| 2026-05-03 23:49 | -14.26083 | -41.31155 | 36058 ft | 476 kts | 24° |
| 2026-05-03 23:49 | -14.20119 | -41.28187 | 36051 ft | 476 kts | 24° |
| 2026-05-03 23:50 | -14.15141 | -41.25712 | 36043 ft | 476 kts | 24° |
| 2026-05-03 23:50 | -14.08189 | -41.22257 | 36045 ft | 476 kts | 24° |
| 2026-05-03 23:51 | -14.02218 | -41.19292 | 36040 ft | 475 kts | 24° |
| 2026-05-03 23:51 | -13.96246 | -41.16329 | 36039 ft | 476 kts | 24° |
| 2026-05-03 23:52 | -13.90263 | -41.13358 | 36041 ft | 476 kts | 24° |
| 2026-05-03 23:52 | -13.84328 | -41.10412 | 36039 ft | 475 kts | 24° |
| 2026-05-03 23:53 | -13.78363 | -41.07453 | 36036 ft | 475 kts | 24° |
| 2026-05-03 23:53 | -13.72380 | -41.04489 | 36034 ft | 475 kts | 24° |
| 2026-05-03 23:54 | -13.66402 | -41.01530 | 36037 ft | 475 kts | 24° |
| 2026-05-03 23:54 | -13.60467 | -40.98595 | 36038 ft | 475 kts | 24° |
| 2026-05-03 23:55 | -13.54525 | -40.95657 | 36046 ft | 474 kts | 24° |
| 2026-05-03 23:55 | -13.48533 | -40.92697 | 36051 ft | 474 kts | 25° |
| 2026-05-03 23:56 | -13.42614 | -40.89771 | 36053 ft | 474 kts | 24° |
| 2026-05-03 23:56 | -13.36626 | -40.86817 | 36051 ft | 474 kts | 24° |
| 2026-05-03 23:57 | -13.30674 | -40.83883 | 36050 ft | 474 kts | 24° |
| 2026-05-03 23:57 | -13.24707 | -40.80943 | 36048 ft | 474 kts | 25° |
| 2026-05-03 23:58 | -13.18773 | -40.78021 | 36046 ft | 474 kts | 25° |
| 2026-05-03 23:58 | -13.12812 | -40.75082 | 36036 ft | 474 kts | 25° |
| 2026-05-03 23:59 | -13.06866 | -40.72150 | 36036 ft | 474 kts | 25° |
| 2026-05-03 23:59 | -13.00943 | -40.69233 | 36033 ft | 474 kts | 25° |
| 2026-05-04 00:00 | -12.94977 | -40.66299 | 36029 ft | 474 kts | 24° |
| 2026-05-04 00:00 | -12.89003 | -40.63368 | 36038 ft | 474 kts | 24° |
| 2026-05-04 00:01 | -12.83053 | -40.60445 | 36043 ft | 474 kts | 24° |
| 2026-05-04 00:01 | -12.77103 | -40.57523 | 36047 ft | 474 kts | 24° |
| 2026-05-04 00:02 | -12.71117 | -40.54584 | 36054 ft | 475 kts | 24° |
| 2026-05-04 00:02 | -12.65148 | -40.51656 | 36054 ft | 474 kts | 24° |
| 2026-05-04 00:03 | -12.59193 | -40.48737 | 36042 ft | 475 kts | 24° |
| 2026-05-04 00:03 | -12.53213 | -40.45812 | 36038 ft | 475 kts | 24° |
| 2026-05-04 00:04 | -12.47228 | -40.42883 | 36032 ft | 475 kts | 24° |
| 2026-05-04 00:04 | -12.41253 | -40.39962 | 36033 ft | 475 kts | 24° |
| 2026-05-04 00:05 | -12.35319 | -40.37060 | 36034 ft | 476 kts | 24° |
| 2026-05-04 00:05 | -12.29285 | -40.34111 | 36031 ft | 476 kts | 24° |
| 2026-05-04 00:06 | -12.23298 | -40.31187 | 36033 ft | 476 kts | 24° |
| 2026-05-04 00:06 | -12.17338 | -40.28276 | 36033 ft | 476 kts | 23° |
| 2026-05-04 00:07 | -12.11314 | -40.25337 | 36034 ft | 476 kts | 24° |
| 2026-05-04 00:07 | -12.05317 | -40.22413 | 36032 ft | 476 kts | 24° |
| 2026-05-04 00:08 | -11.99336 | -40.19495 | 36035 ft | 477 kts | 23° |
| 2026-05-04 00:08 | -11.93345 | -40.16576 | 36041 ft | 477 kts | 23° |
| 2026-05-04 00:09 | -11.87308 | -40.13636 | 36047 ft | 477 kts | 23° |
| 2026-05-04 00:09 | -11.81314 | -40.10717 | 36053 ft | 477 kts | 23° |
| 2026-05-04 00:10 | -11.75335 | -40.07808 | 36052 ft | 477 kts | 23° |
| 2026-05-04 00:10 | -11.69302 | -40.04874 | 36049 ft | 477 kts | 23° |
| 2026-05-04 00:11 | -11.63302 | -40.01958 | 36045 ft | 477 kts | 23° |
| 2026-05-04 00:11 | -11.57313 | -39.99046 | 36033 ft | 477 kts | 23° |
| 2026-05-04 00:12 | -11.51330 | -39.96139 | 36030 ft | 478 kts | 23° |
| 2026-05-04 00:12 | -11.45293 | -39.93207 | 36028 ft | 478 kts | 23° |
| 2026-05-04 00:13 | -11.39296 | -39.90297 | 36034 ft | 478 kts | 23° |
| 2026-05-04 00:13 | -11.33265 | -39.87373 | 36039 ft | 478 kts | 23° |
| 2026-05-04 00:14 | -11.27249 | -39.84459 | 36042 ft | 478 kts | 23° |
| 2026-05-04 00:14 | -11.21226 | -39.81542 | 36045 ft | 478 kts | 23° |
| 2026-05-04 00:15 | -11.15210 | -39.78628 | 36041 ft | 479 kts | 23° |
| 2026-05-04 00:15 | -11.09167 | -39.75701 | 36034 ft | 479 kts | 23° |
| 2026-05-04 00:16 | -11.03133 | -39.72780 | 36025 ft | 479 kts | 23° |
| 2026-05-04 00:16 | -10.97121 | -39.69870 | 36017 ft | 479 kts | 22° |
| 2026-05-04 00:17 | -10.91078 | -39.66948 | 36015 ft | 479 kts | 22° |
| 2026-05-04 00:17 | -10.85033 | -39.64026 | 36026 ft | 479 kts | 22° |
| 2026-05-04 00:18 | -10.79012 | -39.61117 | 36023 ft | 479 kts | 22° |
| 2026-05-04 00:18 | -10.72986 | -39.58207 | 36026 ft | 479 kts | 22° |
| 2026-05-04 00:19 | -10.66959 | -39.55297 | 36027 ft | 479 kts | 22° |
| 2026-05-04 00:19 | -10.60909 | -39.52377 | 36029 ft | 479 kts | 22° |
| 2026-05-04 00:20 | -10.54903 | -39.49479 | 36029 ft | 479 kts | 22° |
| 2026-05-04 00:20 | -10.48857 | -39.46566 | 36034 ft | 478 kts | 22° |
| 2026-05-04 00:21 | -10.42853 | -39.43673 | 36039 ft | 478 kts | 22° |
| 2026-05-04 00:21 | -10.36847 | -39.40777 | 36043 ft | 478 kts | 22° |
| 2026-05-04 00:22 | -10.30814 | -39.37864 | 36043 ft | 478 kts | 22° |
| 2026-05-04 00:22 | -10.24802 | -39.34965 | 36051 ft | 477 kts | 22° |
| 2026-05-04 00:23 | -10.18788 | -39.32073 | 36050 ft | 477 kts | 22° |
| 2026-05-04 00:23 | -10.12783 | -39.29186 | 36045 ft | 477 kts | 22° |
| 2026-05-04 00:24 | -10.06775 | -39.26299 | 36041 ft | 476 kts | 22° |
| 2026-05-04 00:24 | -10.00789 | -39.23424 | 36040 ft | 475 kts | 22° |
| 2026-05-04 00:25 | -9.94792 | -39.20546 | 36039 ft | 475 kts | 22° |
| 2026-05-04 00:25 | -9.88782 | -39.17662 | 36037 ft | 475 kts | 22° |
| 2026-05-04 00:26 | -9.82829 | -39.14829 | 36038 ft | 475 kts | 21° |
| 2026-05-04 00:26 | -9.76782 | -39.12040 | 36033 ft | 474 kts | 21° |
| 2026-05-04 00:27 | -9.70770 | -39.09270 | 36025 ft | 474 kts | 21° |
| 2026-05-04 00:27 | -9.64787 | -39.06509 | 36021 ft | 473 kts | 21° |
| 2026-05-04 00:28 | -9.58774 | -39.03732 | 36024 ft | 473 kts | 21° |
| 2026-05-04 00:28 | -9.52769 | -39.00959 | 36016 ft | 473 kts | 21° |
| 2026-05-04 00:29 | -9.46770 | -38.98189 | 36010 ft | 472 kts | 21° |
| 2026-05-04 00:29 | -9.40781 | -38.95426 | 36006 ft | 472 kts | 21° |
| 2026-05-04 00:30 | -9.34827 | -38.92680 | 36011 ft | 472 kts | 21° |
| 2026-05-04 00:30 | -9.28799 | -38.89900 | 36010 ft | 471 kts | 21° |
| 2026-05-04 00:31 | -9.22841 | -38.87155 | 36005 ft | 471 kts | 21° |
| 2026-05-04 00:31 | -9.16843 | -38.84388 | 36001 ft | 471 kts | 21° |
| 2026-05-04 00:32 | -9.10866 | -38.81632 | 36008 ft | 471 kts | 21° |
| 2026-05-04 00:32 | -9.04879 | -38.78875 | 36012 ft | 471 kts | 21° |
| 2026-05-04 00:33 | -8.95919 | -38.74752 | 36008 ft | 471 kts | 21° |
| 2026-05-04 00:34 | -8.89940 | -38.72001 | 36001 ft | 470 kts | 21° |
| 2026-05-04 00:34 | -8.83980 | -38.69260 | 36003 ft | 470 kts | 21° |
| 2026-05-04 00:35 | -8.77976 | -38.66502 | 35994 ft | 469 kts | 21° |
| 2026-05-04 00:35 | -8.72000 | -38.63755 | 35996 ft | 469 kts | 21° |
| 2026-05-04 00:36 | -8.66032 | -38.61013 | 36002 ft | 469 kts | 21° |
| 2026-05-04 00:36 | -8.60045 | -38.58265 | 36004 ft | 469 kts | 21° |
| 2026-05-04 00:37 | -8.54062 | -38.55519 | 36003 ft | 469 kts | 21° |
| 2026-05-04 00:37 | -8.48109 | -38.52788 | 36000 ft | 468 kts | 21° |
| 2026-05-04 00:38 | -8.42180 | -38.50071 | 35997 ft | 468 kts | 22° |
| 2026-05-04 00:38 | -8.36237 | -38.47345 | 36002 ft | 467 kts | 21° |
| 2026-05-04 00:39 | -8.30301 | -38.44627 | 36010 ft | 468 kts | 21° |
| 2026-05-04 00:39 | -8.24371 | -38.41912 | 36008 ft | 467 kts | 21° |
| 2026-05-04 00:40 | -8.18427 | -38.39188 | 36015 ft | 467 kts | 22° |
| 2026-05-04 00:40 | -8.12529 | -38.36488 | 36015 ft | 467 kts | 22° |
| 2026-05-04 00:41 | -8.06569 | -38.33760 | 36016 ft | 467 kts | 21° |
| 2026-05-04 00:41 | -8.00616 | -38.31037 | 36021 ft | 467 kts | 21° |
| 2026-05-04 00:42 | -7.94686 | -38.28322 | 36025 ft | 467 kts | 21° |
| 2026-05-04 00:42 | -7.88772 | -38.25617 | 36034 ft | 467 kts | 22° |
| 2026-05-04 00:43 | -7.82820 | -38.22890 | 36044 ft | 467 kts | 21° |
| 2026-05-04 00:43 | -7.76906 | -38.20186 | 36053 ft | 467 kts | 22° |
| 2026-05-04 00:44 | -7.70990 | -38.17486 | 36055 ft | 467 kts | 21° |
| 2026-05-04 00:44 | -7.65018 | -38.14764 | 36052 ft | 467 kts | 22° |
| 2026-05-04 00:45 | -7.59082 | -38.12056 | 36054 ft | 468 kts | 22° |
| 2026-05-04 00:45 | -7.53158 | -38.09355 | 36053 ft | 468 kts | 22° |
| 2026-05-04 00:46 | -7.47232 | -38.06656 | 36048 ft | 468 kts | 22° |
| 2026-05-04 00:46 | -7.41268 | -38.03936 | 36040 ft | 468 kts | 22° |
| 2026-05-04 00:47 | -7.35320 | -38.01229 | 36032 ft | 469 kts | 22° |
| 2026-05-04 00:47 | -7.29381 | -37.98523 | 36013 ft | 469 kts | 22° |
| 2026-05-04 00:48 | -7.23393 | -37.95796 | 35996 ft | 469 kts | 22° |
| 2026-05-04 00:48 | -7.17470 | -37.93100 | 35992 ft | 469 kts | 22° |
| 2026-05-04 00:49 | -7.11488 | -37.90377 | 35988 ft | 469 kts | 22° |
| 2026-05-04 00:49 | -7.05529 | -37.87660 | 35985 ft | 470 kts | 22° |
| 2026-05-04 00:50 | -6.99547 | -37.84934 | 35977 ft | 470 kts | 22° |
| 2026-05-04 00:50 | -6.93577 | -37.82217 | 35972 ft | 469 kts | 22° |
| 2026-05-04 00:51 | -6.87551 | -37.79474 | 35973 ft | 469 kts | 22° |
| 2026-05-04 00:51 | -6.81503 | -37.76720 | 35968 ft | 468 kts | 22° |
| 2026-05-04 00:52 | -6.75537 | -37.74007 | 35963 ft | 468 kts | 22° |
| 2026-05-04 00:52 | -6.69594 | -37.71305 | 35970 ft | 468 kts | 22° |
| 2026-05-04 00:53 | -6.63656 | -37.68606 | 35972 ft | 468 kts | 22° |
| 2026-05-04 00:53 | -6.57722 | -37.65910 | 35978 ft | 467 kts | 23° |
| 2026-05-04 00:54 | -6.51765 | -37.63204 | 35974 ft | 468 kts | 22° |
| 2026-05-04 00:54 | -6.45829 | -37.60508 | 35971 ft | 467 kts | 23° |
| 2026-05-04 00:55 | -6.39908 | -37.57820 | 35965 ft | 467 kts | 23° |
| 2026-05-04 00:55 | -6.33973 | -37.55126 | 35966 ft | 467 kts | 23° |
| 2026-05-04 00:56 | -6.28043 | -37.52435 | 35960 ft | 467 kts | 23° |
| 2026-05-04 00:56 | -6.22107 | -37.49742 | 35960 ft | 467 kts | 23° |
| 2026-05-04 00:57 | -6.16148 | -37.47040 | 35959 ft | 467 kts | 23° |
| 2026-05-04 00:57 | -6.10218 | -37.44352 | 35960 ft | 468 kts | 23° |
| 2026-05-04 00:58 | -6.04260 | -37.41652 | 35964 ft | 468 kts | 23° |
| 2026-05-04 00:58 | -5.98335 | -37.38965 | 35961 ft | 468 kts | 23° |
| 2026-05-04 00:59 | -5.92372 | -37.36263 | 35955 ft | 468 kts | 23° |
| 2026-05-04 00:59 | -5.86367 | -37.33542 | 35955 ft | 468 kts | 23° |
| 2026-05-04 01:00 | -5.80413 | -37.30846 | 35950 ft | 468 kts | 23° |
| 2026-05-04 01:00 | -5.74454 | -37.28144 | 35945 ft | 469 kts | 23° |
| 2026-05-04 01:01 | -5.68500 | -37.25420 | 35943 ft | 470 kts | 23° |
| 2026-05-04 01:01 | -5.62549 | -37.22695 | 35942 ft | 470 kts | 23° |
| 2026-05-04 01:02 | -5.56576 | -37.19962 | 35945 ft | 470 kts | 23° |
| 2026-05-04 01:02 | -5.50610 | -37.17238 | 35941 ft | 471 kts | 23° |
| 2026-05-04 01:03 | -5.44612 | -37.14495 | 35943 ft | 471 kts | 23° |
| 2026-05-04 01:03 | -5.38660 | -37.11775 | 35943 ft | 471 kts | 23° |
| 2026-05-04 01:04 | -5.32677 | -37.09041 | 35946 ft | 472 kts | 23° |
| 2026-05-04 01:04 | -5.26691 | -37.06305 | 35947 ft | 472 kts | 23° |
| 2026-05-04 01:05 | -5.20714 | -37.03572 | 35952 ft | 472 kts | 23° |
| 2026-05-04 01:05 | -5.14689 | -37.00817 | 35950 ft | 472 kts | 23° |
| 2026-05-04 01:06 | -5.08713 | -36.98088 | 35957 ft | 472 kts | 23° |
| 2026-05-04 01:06 | -5.02728 | -36.95355 | 35955 ft | 472 kts | 23° |
| 2026-05-04 01:07 | -4.96726 | -36.92617 | 35954 ft | 472 kts | 23° |
| 2026-05-04 01:07 | -4.90736 | -36.89883 | 35950 ft | 472 kts | 23° |
| 2026-05-04 01:08 | -4.84739 | -36.87145 | 35946 ft | 472 kts | 23° |
| 2026-05-04 01:08 | -4.78762 | -36.84417 | 35943 ft | 472 kts | 23° |
| 2026-05-04 01:09 | -4.72769 | -36.81683 | 35940 ft | 472 kts | 23° |
| 2026-05-04 01:09 | -4.66781 | -36.78952 | 35940 ft | 472 kts | 23° |
| 2026-05-04 01:10 | -4.60788 | -36.76221 | 35940 ft | 472 kts | 23° |
| 2026-05-04 01:10 | -4.54781 | -36.73485 | 35940 ft | 472 kts | 22° |
| 2026-05-04 01:11 | -4.48780 | -36.70754 | 35940 ft | 472 kts | 22° |
| 2026-05-04 01:11 | -4.42818 | -36.68038 | 35940 ft | 471 kts | 22° |
| 2026-05-04 01:12 | -4.36815 | -36.65306 | 35940 ft | 471 kts | 22° |
| 2026-05-04 01:12 | -4.30837 | -36.62583 | 35940 ft | 471 kts | 22° |
| 2026-05-04 01:13 | -4.24870 | -36.59866 | 35940 ft | 471 kts | 22° |
| 2026-05-04 01:13 | -4.18872 | -36.57137 | 35940 ft | 471 kts | 22° |
| 2026-05-04 01:14 | -4.12886 | -36.54412 | 35939 ft | 471 kts | 22° |
| 2026-05-04 01:14 | -4.06902 | -36.51691 | 35939 ft | 471 kts | 22° |
| 2026-05-04 01:15 | -4.00931 | -36.48972 | 35939 ft | 471 kts | 23° |
| 2026-05-04 01:15 | -3.94943 | -36.46247 | 35941 ft | 471 kts | 22° |
| 2026-05-04 01:16 | -3.88982 | -36.43538 | 35939 ft | 471 kts | 23° |
| 2026-05-04 01:16 | -3.82998 | -36.40815 | 35943 ft | 471 kts | 22° |
| 2026-05-04 01:17 | -3.77018 | -36.38095 | 35941 ft | 471 kts | 23° |
| 2026-05-04 01:17 | -3.71034 | -36.35375 | 35941 ft | 471 kts | 23° |
| 2026-05-04 01:18 | -3.65050 | -36.32654 | 35941 ft | 471 kts | 22° |
| 2026-05-04 01:18 | -3.59096 | -36.29948 | 35941 ft | 471 kts | 22° |
| 2026-05-04 01:19 | -3.53106 | -36.27227 | 35942 ft | 471 kts | 23° |
| 2026-05-04 01:19 | -3.47152 | -36.24520 | 35942 ft | 471 kts | 22° |
| 2026-05-04 01:20 | -3.41153 | -36.21794 | 35940 ft | 470 kts | 23° |
| 2026-05-04 01:20 | -3.35199 | -36.19089 | 35942 ft | 470 kts | 23° |
| 2026-05-04 01:21 | -3.29237 | -36.16382 | 35940 ft | 471 kts | 23° |
| 2026-05-04 01:21 | -3.23242 | -36.13660 | 35941 ft | 471 kts | 23° |
| 2026-05-04 01:22 | -3.17258 | -36.10943 | 35941 ft | 471 kts | 23° |
| 2026-05-04 01:22 | -3.11274 | -36.08226 | 35942 ft | 471 kts | 23° |
| 2026-05-04 01:23 | -3.05341 | -36.05531 | 35941 ft | 470 kts | 23° |
| 2026-05-04 01:23 | -2.99359 | -36.02815 | 35940 ft | 471 kts | 23° |
| 2026-05-04 01:24 | -2.93365 | -36.00096 | 35941 ft | 471 kts | 23° |
| 2026-05-04 01:24 | -2.87392 | -35.97387 | 35942 ft | 471 kts | 23° |
| 2026-05-04 01:25 | -2.81390 | -35.94664 | 35940 ft | 472 kts | 23° |
| 2026-05-04 01:25 | -2.75400 | -35.91947 | 35941 ft | 472 kts | 23° |
| 2026-05-04 01:26 | -2.69436 | -35.89242 | 35941 ft | 473 kts | 24° |
| 2026-05-04 01:26 | -2.63407 | -35.86506 | 35941 ft | 473 kts | 23° |
| 2026-05-04 01:27 | -2.57424 | -35.83795 | 35939 ft | 474 kts | 24° |
| 2026-05-04 01:27 | -2.51384 | -35.81055 | 35942 ft | 475 kts | 24° |
| 2026-05-04 01:28 | -2.45344 | -35.78318 | 35940 ft | 476 kts | 24° |
| 2026-05-04 01:28 | -2.39292 | -35.75574 | 35942 ft | 476 kts | 25° |
| 2026-05-04 01:29 | -2.33274 | -35.72844 | 35940 ft | 476 kts | 25° |
| 2026-05-04 01:29 | -2.27239 | -35.70105 | 35940 ft | 476 kts | 25° |
| 2026-05-04 01:30 | -2.21191 | -35.67363 | 35941 ft | 476 kts | 25° |
| 2026-05-04 01:30 | -2.15138 | -35.64619 | 35941 ft | 475 kts | 25° |
| 2026-05-04 01:31 | -2.09106 | -35.61884 | 35939 ft | 475 kts | 25° |
| 2026-05-04 01:31 | -2.03072 | -35.59150 | 35939 ft | 475 kts | 25° |
| 2026-05-04 01:32 | -1.97041 | -35.56416 | 35941 ft | 475 kts | 25° |
| 2026-05-04 01:32 | -1.91054 | -35.53703 | 35936 ft | 475 kts | 25° |
| 2026-05-04 01:33 | -1.85017 | -35.50967 | 35937 ft | 475 kts | 25° |
| 2026-05-04 01:33 | -1.78973 | -35.48227 | 35935 ft | 475 kts | 25° |
| 2026-05-04 01:34 | -1.72970 | -35.45373 | 35937 ft | 475 kts | 28° |
| 2026-05-04 01:34 | -1.67160 | -35.42202 | 35938 ft | 475 kts | 29° |
| 2026-05-04 01:35 | -1.61354 | -35.39004 | 35933 ft | 476 kts | 29° |
| 2026-05-04 01:35 | -1.55577 | -35.35825 | 35939 ft | 476 kts | 29° |
| 2026-05-04 01:36 | -1.49725 | -35.32609 | 35936 ft | 477 kts | 29° |
| 2026-05-04 01:36 | -1.43908 | -35.29411 | 35935 ft | 477 kts | 29° |
| 2026-05-04 01:37 | -1.38051 | -35.26194 | 35937 ft | 479 kts | 29° |
| 2026-05-04 01:37 | -1.32224 | -35.22992 | 35936 ft | 478 kts | 29° |
| 2026-05-04 01:38 | -1.26402 | -35.19793 | 35940 ft | 478 kts | 29° |
| 2026-05-04 01:38 | -1.20542 | -35.16575 | 35934 ft | 479 kts | 28° |
| 2026-05-04 01:39 | -1.14717 | -35.13374 | 35933 ft | 479 kts | 28° |
| 2026-05-04 01:39 | -1.08854 | -35.10155 | 35938 ft | 479 kts | 28° |
| 2026-05-04 01:40 | -1.03005 | -35.06943 | 35937 ft | 480 kts | 28° |
| 2026-05-04 01:40 | -0.97141 | -35.03724 | 35937 ft | 480 kts | 28° |
| 2026-05-04 01:41 | -0.91284 | -35.00508 | 35939 ft | 480 kts | 28° |
| 2026-05-04 01:41 | -0.85414 | -34.97285 | 35942 ft | 480 kts | 28° |
| 2026-05-04 01:42 | -0.79531 | -34.94054 | 35941 ft | 480 kts | 28° |
| 2026-05-04 01:42 | -0.73677 | -34.90839 | 35939 ft | 481 kts | 28° |
| 2026-05-04 01:43 | -0.67794 | -34.87609 | 35942 ft | 481 kts | 28° |
| 2026-05-04 01:43 | -0.61955 | -34.84402 | 35940 ft | 481 kts | 28° |
| 2026-05-04 01:44 | -0.56057 | -34.81165 | 35941 ft | 481 kts | 29° |
| 2026-05-04 01:44 | -0.50173 | -34.77929 | 35941 ft | 481 kts | 29° |
| 2026-05-04 01:45 | -0.44315 | -34.74713 | 35941 ft | 482 kts | 29° |
| 2026-05-04 01:45 | -0.35454 | -34.69837 | 35939 ft | 483 kts | 29° |
| 2026-05-04 01:46 | -0.29572 | -34.66604 | 35941 ft | 483 kts | 29° |
| 2026-05-04 01:46 | -0.23666 | -34.63359 | 35940 ft | 483 kts | 29° |
| 2026-05-04 01:47 | -0.17771 | -34.60122 | 35940 ft | 483 kts | 29° |
| 2026-05-04 01:47 | -0.11893 | -34.56895 | 35940 ft | 484 kts | 29° |
| 2026-05-04 01:48 | -0.05965 | -34.53641 | 35940 ft | 484 kts | 29° |
| 2026-05-04 01:48 | -0.00079 | -34.50408 | 35938 ft | 485 kts | 29° |
| 2026-05-04 01:49 | 0.05826 | -34.47166 | 35938 ft | 484 kts | 29° |
| 2026-05-04 01:49 | 0.11760 | -34.43908 | 35942 ft | 484 kts | 29° |
| 2026-05-04 01:50 | 0.17656 | -34.40671 | 35941 ft | 484 kts | 29° |
| 2026-05-04 01:50 | 0.23590 | -34.37413 | 35939 ft | 485 kts | 29° |
| 2026-05-04 01:51 | 0.29512 | -34.34164 | 35943 ft | 485 kts | 28° |
| 2026-05-04 01:51 | 0.35429 | -34.30916 | 35941 ft | 485 kts | 28° |
| 2026-05-04 01:52 | 0.41331 | -34.27676 | 35943 ft | 485 kts | 28° |
| 2026-05-04 01:52 | 0.47266 | -34.24417 | 35940 ft | 485 kts | 28° |
| 2026-05-04 01:53 | 0.53190 | -34.21165 | 35939 ft | 485 kts | 28° |
| 2026-05-04 01:53 | 0.59099 | -34.17920 | 35942 ft | 485 kts | 28° |
| 2026-05-04 01:54 | 0.65014 | -34.14674 | 35942 ft | 485 kts | 28° |
| 2026-05-04 01:54 | 0.70958 | -34.11411 | 35940 ft | 485 kts | 28° |
| 2026-05-04 01:55 | 0.76860 | -34.08169 | 35938 ft | 485 kts | 28° |
| 2026-05-04 01:55 | 0.82792 | -34.04911 | 35945 ft | 485 kts | 28° |
| 2026-05-04 01:56 | 0.88733 | -34.01650 | 35938 ft | 485 kts | 28° |
| 2026-05-04 01:56 | 0.94655 | -33.98401 | 35943 ft | 485 kts | 28° |
| 2026-05-04 01:57 | 1.00571 | -33.95153 | 35940 ft | 485 kts | 28° |
| 2026-05-04 01:57 | 1.06503 | -33.91896 | 35939 ft | 485 kts | 28° |
| 2026-05-04 01:58 | 1.12435 | -33.88639 | 35937 ft | 486 kts | 28° |
| 2026-05-04 01:58 | 1.18370 | -33.85378 | 35935 ft | 486 kts | 28° |
| 2026-05-04 01:59 | 1.24314 | -33.82113 | 35937 ft | 486 kts | 28° |
| 2026-05-04 01:59 | 1.30265 | -33.78843 | 35938 ft | 487 kts | 28° |
| 2026-05-04 02:00 | 1.36180 | -33.75594 | 35939 ft | 488 kts | 28° |
| 2026-05-04 02:00 | 1.42162 | -33.72308 | 35938 ft | 487 kts | 28° |
| 2026-05-04 02:01 | 1.48112 | -33.69040 | 35939 ft | 488 kts | 28° |
| 2026-05-04 02:01 | 1.54046 | -33.65781 | 35936 ft | 488 kts | 28° |
| 2026-05-04 02:02 | 1.60035 | -33.62491 | 35938 ft | 489 kts | 28° |
| 2026-05-04 02:02 | 1.66022 | -33.59203 | 35939 ft | 489 kts | 28° |
| 2026-05-04 02:03 | 1.71968 | -33.55935 | 35938 ft | 489 kts | 28° |
| 2026-05-04 02:03 | 1.77945 | -33.52652 | 35939 ft | 489 kts | 28° |
| 2026-05-04 02:04 | 1.83913 | -33.49374 | 35938 ft | 490 kts | 28° |
| 2026-05-04 02:04 | 1.89899 | -33.46084 | 35939 ft | 490 kts | 28° |
| 2026-05-04 02:05 | 1.95891 | -33.42789 | 35937 ft | 490 kts | 28° |
| 2026-05-04 02:05 | 2.01879 | -33.39497 | 35938 ft | 491 kts | 28° |
| 2026-05-04 02:06 | 2.07881 | -33.36198 | 35939 ft | 491 kts | 28° |
| 2026-05-04 02:06 | 2.13856 | -33.32915 | 35939 ft | 491 kts | 28° |
| 2026-05-04 02:07 | 2.19853 | -33.29612 | 35938 ft | 491 kts | 28° |
| 2026-05-04 02:07 | 2.25843 | -33.26316 | 35938 ft | 491 kts | 28° |
| 2026-05-04 02:08 | 2.31859 | -33.23007 | 35938 ft | 491 kts | 28° |
| 2026-05-04 02:08 | 2.37862 | -33.19706 | 35939 ft | 491 kts | 28° |
| 2026-05-04 02:09 | 2.43850 | -33.16414 | 35937 ft | 492 kts | 28° |
| 2026-05-04 02:09 | 2.49862 | -33.13108 | 35938 ft | 492 kts | 28° |
| 2026-05-04 02:10 | 2.55846 | -33.09814 | 35938 ft | 492 kts | 28° |
| 2026-05-04 02:10 | 2.61877 | -33.06495 | 35937 ft | 492 kts | 28° |
| 2026-05-04 02:11 | 2.67898 | -33.03180 | 35938 ft | 492 kts | 28° |
| 2026-05-04 02:11 | 2.73875 | -32.99889 | 35939 ft | 492 kts | 28° |
| 2026-05-04 02:12 | 2.79903 | -32.96573 | 35938 ft | 492 kts | 28° |
| 2026-05-04 02:12 | 2.85910 | -32.93267 | 35939 ft | 492 kts | 28° |
| 2026-05-04 02:13 | 2.91917 | -32.89961 | 35936 ft | 491 kts | 28° |
| 2026-05-04 02:13 | 2.97916 | -32.86659 | 35937 ft | 492 kts | 28° |
| 2026-05-04 02:14 | 3.03897 | -32.83370 | 35940 ft | 492 kts | 28° |
| 2026-05-04 02:14 | 3.09912 | -32.80060 | 35940 ft | 492 kts | 28° |
| 2026-05-04 02:15 | 3.15918 | -32.76755 | 35940 ft | 492 kts | 28° |
| 2026-05-04 02:15 | 3.21903 | -32.73462 | 35939 ft | 492 kts | 28° |
| 2026-05-04 02:16 | 3.27920 | -32.70149 | 35941 ft | 492 kts | 28° |
| 2026-05-04 02:16 | 3.33954 | -32.66826 | 35940 ft | 492 kts | 28° |
| 2026-05-04 02:17 | 3.39955 | -32.63519 | 35940 ft | 493 kts | 28° |
| 2026-05-04 02:17 | 3.45963 | -32.60209 | 35939 ft | 493 kts | 28° |
| 2026-05-04 02:18 | 3.51972 | -32.56897 | 35940 ft | 493 kts | 28° |
| 2026-05-04 02:18 | 3.58017 | -32.53565 | 35940 ft | 493 kts | 28° |
| 2026-05-04 02:19 | 3.64019 | -32.50257 | 35940 ft | 493 kts | 28° |
| 2026-05-04 02:19 | 3.70054 | -32.46929 | 35940 ft | 493 kts | 28° |
| 2026-05-04 02:20 | 3.76068 | -32.43614 | 35939 ft | 493 kts | 28° |
| 2026-05-04 02:20 | 3.82070 | -32.40304 | 35939 ft | 493 kts | 28° |
| 2026-05-04 02:21 | 3.88098 | -32.36977 | 35941 ft | 493 kts | 28° |
| 2026-05-04 02:21 | 3.94110 | -32.33660 | 35939 ft | 493 kts | 28° |
| 2026-05-04 02:22 | 4.00127 | -32.30341 | 35939 ft | 493 kts | 28° |
| 2026-05-04 02:22 | 4.06155 | -32.27014 | 35940 ft | 493 kts | 28° |
| 2026-05-04 02:23 | 4.12168 | -32.23695 | 35937 ft | 493 kts | 28° |
| 2026-05-04 02:23 | 4.18183 | -32.20374 | 35939 ft | 494 kts | 28° |
| 2026-05-04 02:24 | 4.24227 | -32.17037 | 35940 ft | 494 kts | 28° |
| 2026-05-04 02:24 | 4.30250 | -32.13711 | 35938 ft | 494 kts | 28° |
| 2026-05-04 02:25 | 4.36276 | -32.10383 | 35939 ft | 493 kts | 28° |
| 2026-05-04 02:25 | 4.42301 | -32.07054 | 35939 ft | 494 kts | 28° |
| 2026-05-04 02:26 | 4.48307 | -32.03735 | 35939 ft | 494 kts | 28° |
| 2026-05-04 02:26 | 4.54361 | -32.00390 | 35939 ft | 494 kts | 28° |
| 2026-05-04 02:27 | 4.60396 | -31.97054 | 35941 ft | 494 kts | 28° |
| 2026-05-04 02:27 | 4.66414 | -31.93726 | 35941 ft | 494 kts | 28° |
| 2026-05-04 02:28 | 4.72448 | -31.90389 | 35941 ft | 495 kts | 28° |
| 2026-05-04 02:28 | 4.78458 | -31.87066 | 35942 ft | 494 kts | 28° |
| 2026-05-04 02:29 | 4.84521 | -31.83712 | 35941 ft | 494 kts | 28° |
| 2026-05-04 02:29 | 4.90541 | -31.80380 | 35943 ft | 496 kts | 28° |
| 2026-05-04 02:30 | 4.96592 | -31.77032 | 35943 ft | 495 kts | 28° |
| 2026-05-04 02:30 | 5.02648 | -31.73680 | 35946 ft | 496 kts | 28° |
| 2026-05-04 02:31 | 5.08701 | -31.70328 | 35945 ft | 496 kts | 28° |
| 2026-05-04 02:31 | 5.14750 | -31.66978 | 35947 ft | 497 kts | 28° |
| 2026-05-04 02:32 | 5.20781 | -31.63638 | 35948 ft | 497 kts | 28° |
| 2026-05-04 02:32 | 5.26863 | -31.60239 | 35948 ft | 496 kts | 28° |
| 2026-05-04 02:33 | 5.32898 | -31.56840 | 35951 ft | 497 kts | 28° |
| 2026-05-04 02:33 | 5.38908 | -31.53458 | 35954 ft | 497 kts | 28° |
| 2026-05-04 02:34 | 5.44965 | -31.50052 | 35953 ft | 498 kts | 28° |
| 2026-05-04 02:34 | 5.51047 | -31.46632 | 35956 ft | 498 kts | 28° |
| 2026-05-04 02:35 | 5.57080 | -31.43239 | 35956 ft | 498 kts | 28° |
| 2026-05-04 02:35 | 5.63157 | -31.39820 | 35957 ft | 498 kts | 28° |
| 2026-05-04 02:36 | 5.69203 | -31.36418 | 35957 ft | 499 kts | 28° |
| 2026-05-04 02:36 | 5.75266 | -31.33007 | 35957 ft | 498 kts | 28° |
| 2026-05-04 02:37 | 5.81329 | -31.29594 | 35959 ft | 499 kts | 28° |
| 2026-05-04 02:37 | 5.87388 | -31.26180 | 35960 ft | 499 kts | 28° |
| 2026-05-04 02:38 | 5.93472 | -31.22755 | 35961 ft | 499 kts | 28° |
| 2026-05-04 02:38 | 5.99536 | -31.19339 | 35961 ft | 500 kts | 28° |
| 2026-05-04 02:39 | 6.05643 | -31.15899 | 35962 ft | 499 kts | 28° |
| 2026-05-04 02:39 | 6.11694 | -31.12487 | 35962 ft | 500 kts | 28° |
| 2026-05-04 02:40 | 6.17743 | -31.09076 | 35963 ft | 500 kts | 28° |
| 2026-05-04 02:40 | 6.23862 | -31.05625 | 35965 ft | 500 kts | 28° |
| 2026-05-04 02:41 | 6.29906 | -31.02218 | 35967 ft | 501 kts | 28° |
| 2026-05-04 02:41 | 6.36006 | -30.98773 | 35968 ft | 501 kts | 27° |
| 2026-05-04 02:42 | 6.42075 | -30.95349 | 35972 ft | 500 kts | 28° |
| 2026-05-04 02:42 | 6.48156 | -30.91915 | 35970 ft | 501 kts | 27° |
| 2026-05-04 02:43 | 6.54248 | -30.88474 | 35971 ft | 501 kts | 28° |
| 2026-05-04 02:43 | 6.60320 | -30.85049 | 35973 ft | 501 kts | 27° |
| 2026-05-04 02:44 | 6.66409 | -30.81613 | 35975 ft | 501 kts | 27° |
| 2026-05-04 02:44 | 6.72483 | -30.78182 | 35975 ft | 501 kts | 27° |
| 2026-05-04 02:45 | 6.78578 | -30.74737 | 35979 ft | 500 kts | 27° |
| 2026-05-04 02:45 | 6.84673 | -30.71289 | 35978 ft | 500 kts | 27° |
| 2026-05-04 02:46 | 6.90717 | -30.67870 | 35977 ft | 500 kts | 27° |
| 2026-05-04 02:46 | 6.96798 | -30.64428 | 35982 ft | 500 kts | 27° |
| 2026-05-04 02:47 | 7.02876 | -30.60991 | 35982 ft | 501 kts | 27° |
| 2026-05-04 02:47 | 7.08966 | -30.57532 | 35982 ft | 501 kts | 27° |
| 2026-05-04 02:48 | 7.15050 | -30.54082 | 35982 ft | 501 kts | 27° |
| 2026-05-04 02:48 | 7.21108 | -30.50647 | 35982 ft | 501 kts | 27° |
| 2026-05-04 02:49 | 7.27206 | -30.47187 | 35981 ft | 501 kts | 27° |
| 2026-05-04 02:49 | 7.33301 | -30.43732 | 35982 ft | 501 kts | 27° |
| 2026-05-04 02:50 | 7.39395 | -30.40276 | 35981 ft | 501 kts | 27° |
| 2026-05-04 02:50 | 7.45439 | -30.36847 | 35981 ft | 500 kts | 27° |
| 2026-05-04 02:51 | 7.51521 | -30.33396 | 35980 ft | 501 kts | 27° |
| 2026-05-04 02:51 | 7.57616 | -30.29937 | 35980 ft | 500 kts | 27° |
| 2026-05-04 02:52 | 7.63684 | -30.26491 | 35980 ft | 501 kts | 27° |
| 2026-05-04 02:52 | 7.69764 | -30.23040 | 35981 ft | 499 kts | 27° |
| 2026-05-04 02:53 | 7.75840 | -30.19591 | 35980 ft | 500 kts | 26° |
| 2026-05-04 02:53 | 7.81912 | -30.16139 | 35980 ft | 500 kts | 26° |
| 2026-05-04 02:54 | 7.87969 | -30.12694 | 35981 ft | 500 kts | 26° |
| 2026-05-04 02:54 | 7.94024 | -30.09252 | 35977 ft | 499 kts | 26° |
| 2026-05-04 02:55 | 8.03106 | -30.04089 | 35981 ft | 498 kts | 26° |
| 2026-05-04 02:56 | 8.09160 | -30.00642 | 35984 ft | 498 kts | 26° |
| 2026-05-04 02:56 | 8.15194 | -29.97206 | 35981 ft | 499 kts | 26° |
| 2026-05-04 02:57 | 8.21274 | -29.93745 | 35982 ft | 500 kts | 26° |
| 2026-05-04 02:57 | 8.27323 | -29.90296 | 35982 ft | 499 kts | 26° |
| 2026-05-04 02:58 | 8.33396 | -29.86836 | 35982 ft | 500 kts | 26° |
| 2026-05-04 02:58 | 8.39429 | -29.83396 | 35982 ft | 500 kts | 26° |
| 2026-05-04 02:59 | 8.45511 | -29.79926 | 35984 ft | 501 kts | 26° |
| 2026-05-04 02:59 | 8.51589 | -29.76459 | 35983 ft | 501 kts | 26° |
| 2026-05-04 03:00 | 8.57640 | -29.73001 | 35984 ft | 501 kts | 26° |
| 2026-05-04 03:00 | 8.63719 | -29.69529 | 35982 ft | 502 kts | 26° |
| 2026-05-04 03:01 | 8.69801 | -29.66053 | 35984 ft | 502 kts | 26° |
| 2026-05-04 03:01 | 8.75882 | -29.62577 | 35981 ft | 502 kts | 26° |
| 2026-05-04 03:02 | 8.82011 | -29.59074 | 35982 ft | 502 kts | 26° |
| 2026-05-04 03:02 | 8.88066 | -29.55611 | 35983 ft | 502 kts | 26° |
| 2026-05-04 03:03 | 8.94168 | -29.52116 | 35983 ft | 502 kts | 26° |
| 2026-05-04 03:03 | 9.00260 | -29.48633 | 35982 ft | 503 kts | 26° |
| 2026-05-04 03:04 | 9.06349 | -29.45149 | 35982 ft | 502 kts | 26° |
| 2026-05-04 03:04 | 9.12478 | -29.41635 | 35983 ft | 502 kts | 26° |
| 2026-05-04 03:05 | 9.18573 | -29.38146 | 35984 ft | 503 kts | 26° |
| 2026-05-04 03:05 | 9.24652 | -29.34657 | 35980 ft | 502 kts | 26° |
| 2026-05-04 03:06 | 9.30705 | -29.31184 | 35981 ft | 502 kts | 25° |
| 2026-05-04 03:06 | 9.36829 | -29.27670 | 35983 ft | 502 kts | 26° |
| 2026-05-04 03:07 | 9.42876 | -29.24202 | 35981 ft | 502 kts | 25° |
| 2026-05-04 03:07 | 9.48961 | -29.20706 | 35983 ft | 501 kts | 25° |
| 2026-05-04 03:08 | 9.55043 | -29.17214 | 35982 ft | 501 kts | 25° |
| 2026-05-04 03:08 | 9.61144 | -29.13711 | 35981 ft | 502 kts | 25° |
| 2026-05-04 03:09 | 9.67197 | -29.10228 | 35981 ft | 501 kts | 25° |
| 2026-05-04 03:09 | 9.73275 | -29.06733 | 35983 ft | 502 kts | 25° |
| 2026-05-04 03:10 | 9.79363 | -29.03231 | 35981 ft | 501 kts | 25° |
| 2026-05-04 03:10 | 9.85435 | -28.99736 | 35981 ft | 501 kts | 25° |
| 2026-05-04 03:11 | 9.91485 | -28.96250 | 35980 ft | 501 kts | 25° |
| 2026-05-04 03:11 | 9.97545 | -28.92758 | 35981 ft | 502 kts | 25° |
| 2026-05-04 03:12 | 10.03639 | -28.89246 | 35983 ft | 501 kts | 25° |
| 2026-05-04 03:12 | 10.09717 | -28.85739 | 35987 ft | 501 kts | 25° |
| 2026-05-04 03:13 | 10.15758 | -28.82253 | 35983 ft | 501 kts | 25° |
| 2026-05-04 03:13 | 10.21831 | -28.78748 | 35985 ft | 502 kts | 25° |
| 2026-05-04 03:14 | 10.27907 | -28.75237 | 35985 ft | 502 kts | 25° |
| 2026-05-04 03:14 | 10.34019 | -28.71707 | 35980 ft | 501 kts | 25° |
| 2026-05-04 03:15 | 10.40050 | -28.68219 | 35983 ft | 502 kts | 25° |
| 2026-05-04 03:15 | 10.46132 | -28.64701 | 35986 ft | 502 kts | 25° |
| 2026-05-04 03:16 | 10.52223 | -28.61173 | 35985 ft | 502 kts | 25° |
| 2026-05-04 03:16 | 10.58287 | -28.57660 | 35983 ft | 502 kts | 25° |
| 2026-05-04 03:17 | 10.64387 | -28.54128 | 35984 ft | 502 kts | 25° |
| 2026-05-04 03:17 | 10.70480 | -28.50598 | 35984 ft | 502 kts | 25° |
| 2026-05-04 03:18 | 10.76528 | -28.47094 | 35983 ft | 503 kts | 25° |
| 2026-05-04 03:18 | 10.82621 | -28.43560 | 35986 ft | 502 kts | 25° |
| 2026-05-04 03:19 | 10.88716 | -28.40022 | 35986 ft | 503 kts | 25° |
| 2026-05-04 03:19 | 10.94774 | -28.36506 | 35983 ft | 503 kts | 25° |
| 2026-05-04 03:20 | 11.00884 | -28.32957 | 35982 ft | 503 kts | 25° |
| 2026-05-04 03:20 | 11.06937 | -28.29442 | 35981 ft | 503 kts | 25° |
| 2026-05-04 03:21 | 11.13014 | -28.25905 | 35981 ft | 502 kts | 25° |
| 2026-05-04 03:21 | 11.19116 | -28.22355 | 35986 ft | 502 kts | 25° |
| 2026-05-04 03:22 | 11.25211 | -28.18810 | 35984 ft | 503 kts | 25° |
| 2026-05-04 03:22 | 11.31289 | -28.15271 | 35986 ft | 504 kts | 25° |
| 2026-05-04 03:23 | 11.37380 | -28.11720 | 35989 ft | 503 kts | 25° |
| 2026-05-04 03:23 | 11.43445 | -28.08189 | 35990 ft | 503 kts | 25° |
| 2026-05-04 03:24 | 11.49517 | -28.04649 | 35991 ft | 503 kts | 25° |
| 2026-05-04 03:24 | 11.55623 | -28.01085 | 35992 ft | 503 kts | 25° |
| 2026-05-04 03:25 | 11.61686 | -27.97548 | 35989 ft | 503 kts | 25° |
| 2026-05-04 03:25 | 11.67781 | -27.93987 | 35993 ft | 503 kts | 25° |
| 2026-05-04 03:26 | 11.73852 | -27.90444 | 35999 ft | 503 kts | 25° |
| 2026-05-04 03:26 | 11.79951 | -27.86882 | 35996 ft | 503 kts | 25° |
| 2026-05-04 03:27 | 11.86007 | -27.83336 | 35994 ft | 503 kts | 25° |
| 2026-05-04 03:27 | 11.92083 | -27.79781 | 35998 ft | 504 kts | 25° |
| 2026-05-04 03:28 | 11.98175 | -27.76215 | 36000 ft | 503 kts | 25° |
| 2026-05-04 03:28 | 12.04285 | -27.72633 | 35997 ft | 502 kts | 25° |
| 2026-05-04 03:29 | 12.10369 | -27.69069 | 36001 ft | 503 kts | 25° |
| 2026-05-04 03:29 | 12.16479 | -27.65487 | 35996 ft | 504 kts | 25° |
| 2026-05-04 03:30 | 12.22560 | -27.61919 | 35996 ft | 504 kts | 25° |
| 2026-05-04 03:30 | 12.28669 | -27.58333 | 35998 ft | 504 kts | 25° |
| 2026-05-04 03:31 | 12.34747 | -27.54762 | 35999 ft | 503 kts | 25° |
| 2026-05-04 03:31 | 12.40842 | -27.51178 | 35996 ft | 504 kts | 25° |
| 2026-05-04 03:32 | 12.46914 | -27.47613 | 35995 ft | 503 kts | 25° |
| 2026-05-04 03:32 | 12.53013 | -27.44026 | 35996 ft | 504 kts | 25° |
| 2026-05-04 03:33 | 12.59073 | -27.40460 | 35997 ft | 504 kts | 25° |
| 2026-05-04 03:33 | 12.65162 | -27.36876 | 35996 ft | 504 kts | 25° |
| 2026-05-04 03:34 | 12.71274 | -27.33272 | 35994 ft | 505 kts | 25° |
| 2026-05-04 03:34 | 12.77320 | -27.29707 | 35998 ft | 504 kts | 25° |
| 2026-05-04 03:35 | 12.83447 | -27.26094 | 35999 ft | 505 kts | 25° |
| 2026-05-04 03:35 | 12.89522 | -27.22507 | 35998 ft | 504 kts | 25° |
| 2026-05-04 03:36 | 12.95621 | -27.18907 | 35999 ft | 505 kts | 25° |
| 2026-05-04 03:36 | 13.01718 | -27.15302 | 36000 ft | 505 kts | 25° |
| 2026-05-04 03:37 | 13.07804 | -27.11705 | 36005 ft | 505 kts | 25° |
| 2026-05-04 03:37 | 13.13898 | -27.08099 | 36008 ft | 505 kts | 25° |
| 2026-05-04 03:38 | 13.19972 | -27.04504 | 36002 ft | 505 kts | 25° |
| 2026-05-04 03:38 | 13.26077 | -27.00888 | 36012 ft | 505 kts | 25° |
| 2026-05-04 03:39 | 13.32167 | -26.97278 | 36003 ft | 505 kts | 25° |
| 2026-05-04 03:39 | 13.38280 | -26.93654 | 36006 ft | 505 kts | 25° |
| 2026-05-04 03:40 | 13.44351 | -26.90050 | 36012 ft | 505 kts | 25° |
| 2026-05-04 03:40 | 13.50454 | -26.86431 | 36003 ft | 506 kts | 25° |
| 2026-05-04 03:41 | 13.56573 | -26.82790 | 36006 ft | 504 kts | 25° |
| 2026-05-04 03:41 | 13.62626 | -26.79193 | 36005 ft | 504 kts | 25° |
| 2026-05-04 03:42 | 13.68724 | -26.75569 | 36010 ft | 506 kts | 25° |
| 2026-05-04 03:42 | 13.74842 | -26.71928 | 36006 ft | 506 kts | 25° |
| 2026-05-04 03:43 | 13.80952 | -26.68287 | 36004 ft | 506 kts | 25° |
| 2026-05-04 03:43 | 13.87007 | -26.64681 | 36009 ft | 505 kts | 25° |
| 2026-05-04 03:44 | 13.93087 | -26.61055 | 36001 ft | 505 kts | 25° |
| 2026-05-04 03:44 | 13.99204 | -26.57410 | 36008 ft | 505 kts | 25° |
| 2026-05-04 03:45 | 14.05287 | -26.53781 | 36007 ft | 506 kts | 25° |
| 2026-05-04 03:45 | 14.11348 | -26.50161 | 36001 ft | 505 kts | 25° |
| 2026-05-04 03:46 | 14.17456 | -26.46510 | 36004 ft | 506 kts | 25° |
| 2026-05-04 03:46 | 14.23516 | -26.42882 | 36005 ft | 505 kts | 25° |
| 2026-05-04 03:47 | 14.29639 | -26.39219 | 36003 ft | 505 kts | 25° |
| 2026-05-04 03:47 | 14.35715 | -26.35582 | 36007 ft | 506 kts | 25° |
| 2026-05-04 03:48 | 14.41821 | -26.31921 | 36005 ft | 505 kts | 25° |
| 2026-05-04 03:48 | 14.47923 | -26.28262 | 36004 ft | 505 kts | 25° |
| 2026-05-04 03:49 | 14.54038 | -26.24593 | 36005 ft | 506 kts | 25° |
| 2026-05-04 03:49 | 14.60126 | -26.20937 | 36007 ft | 506 kts | 25° |
| 2026-05-04 03:50 | 14.66215 | -26.17277 | 36003 ft | 506 kts | 25° |
| 2026-05-04 03:50 | 14.72347 | -26.13591 | 36007 ft | 506 kts | 25° |
| 2026-05-04 03:51 | 14.78410 | -26.09941 | 36007 ft | 505 kts | 25° |
| 2026-05-04 03:51 | 14.84526 | -26.06258 | 36003 ft | 505 kts | 25° |
| 2026-05-04 03:52 | 14.90592 | -26.02605 | 36007 ft | 507 kts | 25° |
| 2026-05-04 03:52 | 14.96653 | -25.98953 | 36002 ft | 505 kts | 25° |
| 2026-05-04 03:53 | 15.02738 | -25.95273 | 36002 ft | 506 kts | 24° |
| 2026-05-04 03:53 | 15.08841 | -25.91592 | 36001 ft | 505 kts | 25° |
| 2026-05-04 03:54 | 15.14968 | -25.87907 | 36004 ft | 506 kts | 25° |
| 2026-05-04 03:54 | 15.21050 | -25.84216 | 36006 ft | 506 kts | 25° |
| 2026-05-04 03:55 | 15.27128 | -25.80517 | 36006 ft | 507 kts | 25° |
| 2026-05-04 03:55 | 15.33241 | -25.76827 | 36010 ft | 507 kts | 25° |
| 2026-05-04 03:56 | 15.39202 | -25.73230 | 36005 ft | 506 kts | 25° |
| 2026-05-04 03:56 | 15.45298 | -25.69526 | 36016 ft | 508 kts | 24° |
| 2026-05-04 03:57 | 15.51392 | -25.65848 | 36011 ft | 507 kts | 25° |
| 2026-05-04 03:57 | 15.57486 | -25.62139 | 36011 ft | 507 kts | 25° |
| 2026-05-04 03:58 | 15.66651 | -25.56573 | 36018 ft | 508 kts | 25° |
| 2026-05-04 03:58 | 15.72777 | -25.52856 | 36014 ft | 507 kts | 25° |
| 2026-05-04 03:59 | 15.78863 | -25.49153 | 36018 ft | 507 kts | 25° |
| 2026-05-04 03:59 | 15.84964 | -25.45422 | 36021 ft | 508 kts | 25° |
| 2026-05-04 04:00 | 15.91031 | -25.41724 | 36024 ft | 508 kts | 25° |
| 2026-05-04 04:00 | 15.97130 | -25.38024 | 36026 ft | 507 kts | 25° |
| 2026-05-04 04:01 | 16.03254 | -25.34283 | 36017 ft | 506 kts | 26° |
| 2026-05-04 04:01 | 16.09340 | -25.30558 | 36019 ft | 506 kts | 25° |
| 2026-05-04 04:02 | 16.15426 | -25.26839 | 36019 ft | 507 kts | 26° |
| 2026-05-04 04:02 | 16.21537 | -25.23115 | 36022 ft | 507 kts | 26° |
| 2026-05-04 04:03 | 16.27606 | -25.19384 | 36021 ft | 506 kts | 25° |
| 2026-05-04 04:03 | 16.33726 | -25.15636 | 36021 ft | 507 kts | 26° |
| 2026-05-04 04:04 | 16.39821 | -25.11904 | 36020 ft | 507 kts | 26° |
| 2026-05-04 04:04 | 16.45892 | -25.08194 | 36022 ft | 506 kts | 26° |
| 2026-05-04 04:05 | 16.51971 | -25.04454 | 36020 ft | 508 kts | 26° |
| 2026-05-04 04:05 | 16.58104 | -25.00691 | 36018 ft | 507 kts | 26° |
| 2026-05-04 04:06 | 16.64193 | -24.96944 | 36019 ft | 508 kts | 26° |
| 2026-05-04 04:06 | 16.70304 | -24.93165 | 36019 ft | 508 kts | 26° |
| 2026-05-04 04:07 | 16.76407 | -24.89405 | 36022 ft | 507 kts | 26° |
| 2026-05-04 04:07 | 16.82460 | -24.85678 | 36026 ft | 508 kts | 26° |
| 2026-05-04 04:08 | 16.88581 | -24.81902 | 36021 ft | 508 kts | 26° |
| 2026-05-04 04:08 | 16.94684 | -24.78134 | 36027 ft | 508 kts | 26° |
| 2026-05-04 04:09 | 17.00746 | -24.74390 | 36027 ft | 509 kts | 26° |
| 2026-05-04 04:09 | 17.06870 | -24.70608 | 36025 ft | 509 kts | 26° |
| 2026-05-04 04:10 | 17.12973 | -24.66831 | 36031 ft | 509 kts | 26° |
| 2026-05-04 04:10 | 17.19034 | -24.63080 | 36023 ft | 508 kts | 26° |
| 2026-05-04 04:11 | 17.25150 | -24.59298 | 36027 ft | 509 kts | 26° |
| 2026-05-04 04:11 | 17.31208 | -24.55547 | 36024 ft | 508 kts | 26° |
| 2026-05-04 04:12 | 17.37325 | -24.51750 | 36026 ft | 508 kts | 26° |
| 2026-05-04 04:12 | 17.43397 | -24.47976 | 36027 ft | 508 kts | 26° |
| 2026-05-04 04:13 | 17.49476 | -24.44197 | 36027 ft | 507 kts | 26° |
| 2026-05-04 04:13 | 17.55543 | -24.40427 | 36021 ft | 507 kts | 26° |
| 2026-05-04 04:14 | 17.61591 | -24.36660 | 36024 ft | 507 kts | 26° |
| 2026-05-04 04:14 | 17.67676 | -24.32872 | 36019 ft | 508 kts | 27° |
| 2026-05-04 04:15 | 17.73769 | -24.29074 | 36022 ft | 508 kts | 27° |
| 2026-05-04 04:15 | 17.79840 | -24.25286 | 36023 ft | 508 kts | 27° |
| 2026-05-04 04:16 | 17.85897 | -24.21501 | 36021 ft | 508 kts | 27° |
| 2026-05-04 04:16 | 17.92002 | -24.17685 | 36023 ft | 508 kts | 27° |
| 2026-05-04 04:17 | 17.98069 | -24.13891 | 36023 ft | 508 kts | 27° |
| 2026-05-04 04:17 | 18.04138 | -24.10096 | 36021 ft | 508 kts | 27° |
| 2026-05-04 04:18 | 18.10220 | -24.06286 | 36025 ft | 508 kts | 27° |
| 2026-05-04 04:18 | 18.16328 | -24.02457 | 36023 ft | 509 kts | 27° |
| 2026-05-04 04:19 | 18.22397 | -23.98654 | 36023 ft | 509 kts | 27° |
| 2026-05-04 04:19 | 18.28488 | -23.94828 | 36025 ft | 509 kts | 27° |
| 2026-05-04 04:20 | 18.34579 | -23.91002 | 36026 ft | 510 kts | 27° |
| 2026-05-04 04:20 | 18.40665 | -23.87180 | 36023 ft | 510 kts | 27° |
| 2026-05-04 04:21 | 18.46779 | -23.83340 | 36023 ft | 510 kts | 27° |
| 2026-05-04 04:21 | 18.52872 | -23.79508 | 36028 ft | 511 kts | 27° |
| 2026-05-04 04:22 | 18.59015 | -23.75637 | 36027 ft | 511 kts | 27° |
| 2026-05-04 04:22 | 18.65093 | -23.71805 | 36025 ft | 511 kts | 27° |
| 2026-05-04 04:23 | 18.71217 | -23.67939 | 36027 ft | 511 kts | 27° |
| 2026-05-04 04:23 | 18.77342 | -23.64070 | 36029 ft | 512 kts | 27° |
| 2026-05-04 04:24 | 18.83471 | -23.60191 | 36026 ft | 512 kts | 27° |
| 2026-05-04 04:24 | 18.89597 | -23.56318 | 36024 ft | 512 kts | 27° |
| 2026-05-04 04:25 | 18.95681 | -23.52467 | 36024 ft | 512 kts | 27° |
| 2026-05-04 04:25 | 19.01833 | -23.48573 | 36024 ft | 513 kts | 27° |
| 2026-05-04 04:26 | 19.07971 | -23.44678 | 36024 ft | 513 kts | 27° |
| 2026-05-04 04:26 | 19.14077 | -23.40802 | 36022 ft | 514 kts | 26° |
| 2026-05-04 04:27 | 19.20233 | -23.36887 | 36022 ft | 514 kts | 27° |
| 2026-05-04 04:27 | 19.26368 | -23.32985 | 36022 ft | 515 kts | 27° |
| 2026-05-04 04:28 | 19.32521 | -23.29065 | 36022 ft | 515 kts | 27° |
| 2026-05-04 04:28 | 19.38639 | -23.25166 | 36026 ft | 515 kts | 27° |
| 2026-05-04 04:29 | 19.44800 | -23.21235 | 36022 ft | 515 kts | 27° |
| 2026-05-04 04:29 | 19.50936 | -23.17318 | 36023 ft | 515 kts | 27° |
| 2026-05-04 04:30 | 19.57108 | -23.13371 | 36026 ft | 516 kts | 27° |
| 2026-05-04 04:30 | 19.63247 | -23.09445 | 36024 ft | 516 kts | 27° |
| 2026-05-04 04:31 | 19.69283 | -23.05581 | 36022 ft | 517 kts | 27° |
| 2026-05-04 04:31 | 19.75454 | -23.01628 | 36023 ft | 517 kts | 27° |
| 2026-05-04 04:32 | 19.81610 | -22.97677 | 36024 ft | 516 kts | 27° |
| 2026-05-04 04:32 | 19.87740 | -22.93742 | 36023 ft | 516 kts | 27° |
| 2026-05-04 04:33 | 19.93897 | -22.89789 | 36025 ft | 517 kts | 27° |
| 2026-05-04 04:33 | 20.00066 | -22.85817 | 36022 ft | 517 kts | 27° |
| 2026-05-04 04:34 | 20.06255 | -22.81834 | 36023 ft | 517 kts | 27° |
| 2026-05-04 04:34 | 20.12372 | -22.77893 | 36021 ft | 517 kts | 27° |
| 2026-05-04 04:35 | 20.18552 | -22.73904 | 36022 ft | 517 kts | 27° |
| 2026-05-04 04:35 | 20.24667 | -22.69957 | 36022 ft | 517 kts | 27° |
| 2026-05-04 04:36 | 20.30859 | -22.65956 | 36022 ft | 517 kts | 27° |
| 2026-05-04 04:36 | 20.36988 | -22.61994 | 36022 ft | 518 kts | 27° |
| 2026-05-04 04:37 | 20.49342 | -22.53990 | 36022 ft | 517 kts | 27° |
| 2026-05-04 04:38 | 20.55461 | -22.50020 | 36023 ft | 517 kts | 27° |
| 2026-05-04 04:38 | 20.61635 | -22.46007 | 36022 ft | 518 kts | 27° |
| 2026-05-04 04:39 | 20.67776 | -22.42019 | 36022 ft | 518 kts | 27° |
| 2026-05-04 04:39 | 20.73930 | -22.38016 | 36022 ft | 518 kts | 27° |
| 2026-05-04 04:40 | 20.80119 | -22.33989 | 36018 ft | 519 kts | 27° |
| 2026-05-04 04:40 | 20.86273 | -22.29975 | 36022 ft | 520 kts | 27° |
| 2026-05-04 04:41 | 20.92450 | -22.25945 | 36022 ft | 519 kts | 27° |
| 2026-05-04 04:41 | 20.98631 | -22.21911 | 36023 ft | 521 kts | 27° |
| 2026-05-04 04:42 | 21.04824 | -22.17865 | 36022 ft | 521 kts | 27° |
| 2026-05-04 04:42 | 21.11049 | -22.13791 | 36021 ft | 521 kts | 27° |
| 2026-05-04 04:43 | 21.17254 | -22.09724 | 36022 ft | 521 kts | 27° |
| 2026-05-04 04:43 | 21.23444 | -22.05664 | 36022 ft | 522 kts | 27° |
| 2026-05-04 04:44 | 21.29658 | -22.01583 | 36023 ft | 522 kts | 27° |
| 2026-05-04 04:44 | 21.35845 | -21.97517 | 36022 ft | 522 kts | 27° |
| 2026-05-04 04:45 | 21.42030 | -21.93449 | 36022 ft | 522 kts | 27° |
| 2026-05-04 04:47 | 21.63677 | -21.79169 | 36024 ft | 521 kts | 27° |
| 2026-05-04 04:47 | 21.69875 | -21.75073 | 36022 ft | 522 kts | 27° |
| 2026-05-04 04:48 | 21.76073 | -21.70975 | 36026 ft | 521 kts | 27° |
| 2026-05-04 04:49 | 21.91479 | -21.60767 | 36024 ft | 521 kts | 27° |
| 2026-05-04 04:49 | 21.97676 | -21.56659 | 36022 ft | 521 kts | 27° |
| 2026-05-04 04:50 | 22.03838 | -21.52566 | 36022 ft | 520 kts | 27° |
| 2026-05-04 04:50 | 22.09998 | -21.48469 | 36024 ft | 520 kts | 27° |
| 2026-05-04 04:51 | 22.15132 | -21.45053 | 36022 ft | 520 kts | 27° |
| 2026-05-04 04:51 | 22.22348 | -21.40245 | 36023 ft | 520 kts | 27° |
| 2026-05-04 04:52 | 22.28523 | -21.36122 | 36022 ft | 520 kts | 27° |
| 2026-05-04 04:52 | 22.34695 | -21.32002 | 36022 ft | 521 kts | 28° |
| 2026-05-04 04:53 | 22.40881 | -21.27863 | 36024 ft | 520 kts | 27° |
| 2026-05-04 04:53 | 22.47034 | -21.23749 | 36021 ft | 520 kts | 28° |
| 2026-05-04 04:54 | 22.53148 | -21.19650 | 36023 ft | 519 kts | 27° |
| 2026-05-04 04:54 | 22.59343 | -21.15496 | 36023 ft | 520 kts | 28° |
| 2026-05-04 04:55 | 22.65463 | -21.11387 | 36024 ft | 520 kts | 28° |
| 2026-05-04 04:55 | 22.71615 | -21.07252 | 36023 ft | 520 kts | 28° |
| 2026-05-04 04:56 | 22.77761 | -21.03116 | 36023 ft | 520 kts | 28° |
| 2026-05-04 04:56 | 22.83927 | -20.98964 | 36022 ft | 520 kts | 28° |
| 2026-05-04 04:57 | 22.90067 | -20.94825 | 36021 ft | 520 kts | 28° |
| 2026-05-04 04:57 | 22.96231 | -20.90662 | 36022 ft | 520 kts | 28° |
| 2026-05-04 04:58 | 23.02399 | -20.86496 | 36019 ft | 519 kts | 27° |
| 2026-05-04 04:58 | 23.08512 | -20.82364 | 36018 ft | 520 kts | 27° |
| 2026-05-04 04:59 | 23.14663 | -20.78197 | 36016 ft | 520 kts | 28° |
| 2026-05-04 04:59 | 23.20805 | -20.74029 | 36017 ft | 520 kts | 28° |
| 2026-05-04 05:00 | 23.26971 | -20.69846 | 36015 ft | 519 kts | 28° |
| 2026-05-04 05:01 | 23.36182 | -20.63583 | 36014 ft | 518 kts | 28° |
| 2026-05-04 05:01 | 23.42281 | -20.59434 | 36013 ft | 520 kts | 28° |
| 2026-05-04 05:02 | 23.48417 | -20.55254 | 36014 ft | 519 kts | 28° |
| 2026-05-04 05:02 | 23.54555 | -20.51066 | 36010 ft | 519 kts | 28° |
| 2026-05-04 05:03 | 23.60690 | -20.46877 | 36012 ft | 519 kts | 28° |
| 2026-05-04 05:04 | 23.72969 | -20.38476 | 36007 ft | 518 kts | 28° |
| 2026-05-04 05:04 | 23.78053 | -20.34994 | 36007 ft | 518 kts | 28° |
| 2026-05-04 05:06 | 24.03494 | -20.17512 | 36003 ft | 518 kts | 28° |
| 2026-05-04 05:07 | 24.09580 | -20.13318 | 36002 ft | 517 kts | 28° |
| 2026-05-04 05:07 | 24.15665 | -20.09119 | 36004 ft | 517 kts | 28° |
| 2026-05-04 05:09 | 24.43004 | -19.90204 | 36001 ft | 517 kts | 28° |
| 2026-05-04 05:10 | 24.49111 | -19.85963 | 36001 ft | 516 kts | 28° |
| 2026-05-04 05:10 | 24.55175 | -19.81747 | 36001 ft | 516 kts | 28° |
| 2026-05-04 05:11 | 24.61211 | -19.77549 | 36001 ft | 516 kts | 28° |
| 2026-05-04 05:11 | 24.67317 | -19.73296 | 36001 ft | 516 kts | 28° |
| 2026-05-04 05:12 | 24.73354 | -19.69085 | 36001 ft | 516 kts | 28° |
| 2026-05-04 05:12 | 24.79444 | -19.64832 | 36001 ft | 515 kts | 28° |
| 2026-05-04 05:13 | 24.85479 | -19.60614 | 36001 ft | 515 kts | 29° |
| 2026-05-04 05:13 | 24.91533 | -19.56373 | 36002 ft | 516 kts | 28° |
| 2026-05-04 05:14 | 24.97564 | -19.52149 | 36001 ft | 515 kts | 29° |
| 2026-05-04 05:14 | 25.03616 | -19.47900 | 36001 ft | 515 kts | 28° |
| 2026-05-04 05:15 | 25.09684 | -19.43633 | 36001 ft | 515 kts | 29° |
| 2026-05-04 05:15 | 25.15728 | -19.39382 | 36001 ft | 515 kts | 28° |
| 2026-05-04 05:16 | 25.21772 | -19.35123 | 36001 ft | 515 kts | 28° |
| 2026-05-04 05:16 | 25.27824 | -19.30857 | 36000 ft | 516 kts | 29° |
| 2026-05-04 05:17 | 25.33851 | -19.26601 | 36001 ft | 515 kts | 29° |
| 2026-05-04 05:17 | 25.39919 | -19.22311 | 36001 ft | 515 kts | 29° |
| 2026-05-04 05:18 | 25.45921 | -19.18065 | 36001 ft | 515 kts | 29° |
| 2026-05-04 05:18 | 25.51955 | -19.13789 | 36001 ft | 514 kts | 29° |
| 2026-05-04 05:19 | 25.58007 | -19.09496 | 36001 ft | 514 kts | 29° |
| 2026-05-04 05:19 | 25.64057 | -19.05201 | 36002 ft | 515 kts | 29° |
| 2026-05-04 05:20 | 25.70085 | -19.00914 | 36002 ft | 514 kts | 29° |
| 2026-05-04 05:20 | 25.76074 | -18.96652 | 35997 ft | 514 kts | 29° |
| 2026-05-04 05:21 | 25.82114 | -18.92345 | 35997 ft | 514 kts | 29° |
| 2026-05-04 05:21 | 25.88158 | -18.88032 | 35997 ft | 514 kts | 29° |
| 2026-05-04 05:22 | 25.94180 | -18.83734 | 35993 ft | 515 kts | 29° |
| 2026-05-04 05:22 | 26.00192 | -18.79427 | 35988 ft | 514 kts | 29° |
| 2026-05-04 05:23 | 26.06264 | -18.75074 | 35991 ft | 514 kts | 29° |
| 2026-05-04 05:23 | 26.12267 | -18.70769 | 35986 ft | 514 kts | 29° |
| 2026-05-04 05:24 | 26.18264 | -18.66461 | 35984 ft | 514 kts | 29° |
| 2026-05-04 05:24 | 26.24304 | -18.62122 | 35981 ft | 514 kts | 29° |
| 2026-05-04 05:25 | 26.30298 | -18.57805 | 35983 ft | 513 kts | 29° |
| 2026-05-04 05:25 | 26.36340 | -18.53452 | 35984 ft | 514 kts | 29° |
| 2026-05-04 05:26 | 26.42323 | -18.49133 | 35982 ft | 514 kts | 29° |
| 2026-05-04 05:26 | 26.48325 | -18.44795 | 35979 ft | 514 kts | 29° |
| 2026-05-04 05:28 | 26.72369 | -18.27363 | 35973 ft | 515 kts | 29° |
| 2026-05-04 05:29 | 26.78394 | -18.22977 | 35979 ft | 517 kts | 30° |
| 2026-05-04 05:29 | 26.81411 | -18.20780 | 36136 ft | 519 kts | 30° |
| 2026-05-04 05:29 | 26.84417 | -18.18589 | 36428 ft | 518 kts | 29° |
| 2026-05-04 05:31 | 27.05522 | -18.03174 | 37960 ft | 518 kts | 30° |
| 2026-05-04 05:31 | 27.08561 | -18.00950 | 37961 ft | 518 kts | 30° |
| 2026-05-04 05:32 | 27.14585 | -17.96534 | 37964 ft | 518 kts | 30° |